AFR029 NTAA-KLAX
Flight info
| Callsign | AFR029 |
|---|---|
| Flight time | 7h 12m |
| Altitude | 35000 |
| Route | IKELO4E IKELO DCT 10S147W 05S145W 00N143W 0330N14145W/N0488F370 10N138W 1500N13430W 20N131W 25N127W/N0479F390 30N123W DCT FICKY GOATZ2 |
| Aircraft | B77W/H-SDE1E2E3FGHIJ2J3J4J5M1RWXY/LB1D1 |
Departure
| Time | 2026-05-04 17:35 |
|---|---|
| Airport | Fa'a'ā International Airport (NTAA) |
Arrival
| Time | 2026-05-05 00:48 |
|---|---|
| Airport | Los Angeles International Airport (KLAX) |
| Time | Latitude | Longitude | Altitude | Speed | Heading |
|---|---|---|---|---|---|
| 2026-05-04 17:10 | -17.55811 | -149.60958 | 26 ft | 0 kts | 144° |
| 2026-05-04 17:26 | -17.55751 | -149.60991 | 32 ft | 4 kts | 196° |
| 2026-05-04 17:27 | -17.55726 | -149.60971 | 32 ft | 0 kts | 234° |
| 2026-05-04 17:30 | -17.55732 | -149.60981 | 32 ft | 3 kts | 234° |
| 2026-05-04 17:31 | -17.55750 | -149.61077 | 29 ft | 8 kts | 316° |
| 2026-05-04 17:31 | -17.55741 | -149.61261 | 30 ft | 14 kts | 235° |
| 2026-05-04 17:32 | -17.55876 | -149.61457 | 27 ft | 14 kts | 234° |
| 2026-05-04 17:33 | -17.56050 | -149.61710 | 27 ft | 14 kts | 234° |
| 2026-05-04 17:33 | -17.56107 | -149.61795 | 28 ft | 14 kts | 234° |
| 2026-05-04 17:34 | -17.56237 | -149.62017 | 27 ft | 6 kts | 181° |
| 2026-05-04 17:34 | -17.56248 | -149.61984 | 27 ft | 6 kts | 60° |
| 2026-05-04 17:35 | -17.56058 | -149.61724 | 27 ft | 72 kts | 54° |
| 2026-05-04 17:35 | -17.54927 | -149.60100 | 203 ft | 177 kts | 52° |
| 2026-05-04 17:35 | -17.54165 | -149.59096 | 869 ft | 172 kts | 50° |
| 2026-05-04 17:36 | -17.53446 | -149.58104 | 1474 ft | 176 kts | 53° |
| 2026-05-04 17:36 | -17.52741 | -149.57059 | 2079 ft | 180 kts | 54° |
| 2026-05-04 17:36 | -17.51819 | -149.56181 | 2496 ft | 184 kts | 16° |
| 2026-05-04 17:36 | -17.50546 | -149.56229 | 2924 ft | 188 kts | 346° |
| 2026-05-04 17:37 | -17.49259 | -149.56562 | 3416 ft | 193 kts | 348° |
| 2026-05-04 17:37 | -17.47945 | -149.56872 | 3971 ft | 193 kts | 348° |
| 2026-05-04 17:37 | -17.46635 | -149.57177 | 4486 ft | 197 kts | 347° |
| 2026-05-04 17:37 | -17.45249 | -149.57496 | 4872 ft | 211 kts | 348° |
| 2026-05-04 17:38 | -17.43748 | -149.57841 | 5139 ft | 230 kts | 348° |
| 2026-05-04 17:38 | -17.42113 | -149.58212 | 5428 ft | 250 kts | 348° |
| 2026-05-04 17:38 | -17.40382 | -149.58601 | 5957 ft | 258 kts | 348° |
| 2026-05-04 17:38 | -17.38589 | -149.59001 | 6490 ft | 267 kts | 348° |
| 2026-05-04 17:39 | -17.34842 | -149.59832 | 7811 ft | 283 kts | 348° |
| 2026-05-04 17:39 | -17.32898 | -149.60261 | 8650 ft | 286 kts | 347° |
| 2026-05-04 17:39 | -17.30934 | -149.60695 | 9478 ft | 289 kts | 347° |
| 2026-05-04 17:40 | -17.28928 | -149.60919 | 10068 ft | 296 kts | 7° |
| 2026-05-04 17:40 | -17.26943 | -149.60142 | 10394 ft | 319 kts | 34° |
| 2026-05-04 17:40 | -17.25159 | -149.58688 | 10569 ft | 341 kts | 38° |
| 2026-05-04 17:40 | -17.23250 | -149.57058 | 10750 ft | 367 kts | 39° |
| 2026-05-04 17:41 | -17.21222 | -149.55322 | 11112 ft | 384 kts | 38° |
| 2026-05-04 17:41 | -17.19128 | -149.53534 | 11730 ft | 393 kts | 38° |
| 2026-05-04 17:41 | -17.16979 | -149.51708 | 12431 ft | 399 kts | 38° |
| 2026-05-04 17:41 | -17.14823 | -149.49884 | 13173 ft | 404 kts | 38° |
| 2026-05-04 17:42 | -17.12619 | -149.48027 | 13890 ft | 409 kts | 38° |
| 2026-05-04 17:42 | -17.10378 | -149.46144 | 14552 ft | 412 kts | 37° |
| 2026-05-04 17:42 | -17.08161 | -149.44283 | 15274 ft | 414 kts | 37° |
| 2026-05-04 17:42 | -17.05900 | -149.42388 | 16018 ft | 415 kts | 37° |
| 2026-05-04 17:43 | -17.03655 | -149.40507 | 16709 ft | 418 kts | 37° |
| 2026-05-04 17:43 | -17.01374 | -149.38597 | 17377 ft | 421 kts | 37° |
| 2026-05-04 17:43 | -16.99083 | -149.36678 | 18030 ft | 424 kts | 37° |
| 2026-05-04 17:43 | -16.96772 | -149.34744 | 18620 ft | 427 kts | 37° |
| 2026-05-04 17:44 | -16.94437 | -149.32789 | 19160 ft | 431 kts | 37° |
| 2026-05-04 17:44 | -16.92074 | -149.30813 | 19685 ft | 435 kts | 37° |
| 2026-05-04 17:44 | -16.89716 | -149.28840 | 20223 ft | 438 kts | 37° |
| 2026-05-04 17:44 | -16.87317 | -149.26833 | 20755 ft | 442 kts | 37° |
| 2026-05-04 17:45 | -16.84934 | -149.24841 | 21261 ft | 445 kts | 37° |
| 2026-05-04 17:45 | -16.82505 | -149.22812 | 21780 ft | 449 kts | 37° |
| 2026-05-04 17:45 | -16.80014 | -149.20847 | 22241 ft | 451 kts | 30° |
| 2026-05-04 17:45 | -16.77144 | -149.19533 | 22611 ft | 450 kts | 16° |
| 2026-05-04 17:46 | -16.74130 | -149.18584 | 22978 ft | 456 kts | 15° |
| 2026-05-04 17:46 | -16.71059 | -149.17633 | 23456 ft | 460 kts | 15° |
| 2026-05-04 17:46 | -16.68006 | -149.16676 | 23900 ft | 462 kts | 16° |
| 2026-05-04 17:46 | -16.64888 | -149.15676 | 24311 ft | 465 kts | 16° |
| 2026-05-04 17:47 | -16.61793 | -149.14667 | 24697 ft | 469 kts | 17° |
| 2026-05-04 17:47 | -16.58707 | -149.13646 | 25076 ft | 472 kts | 17° |
| 2026-05-04 17:47 | -16.55539 | -149.12590 | 25446 ft | 475 kts | 17° |
| 2026-05-04 17:47 | -16.52406 | -149.11542 | 25803 ft | 479 kts | 17° |
| 2026-05-04 17:48 | -16.49195 | -149.10467 | 26162 ft | 482 kts | 17° |
| 2026-05-04 17:48 | -16.45983 | -149.09391 | 26522 ft | 485 kts | 17° |
| 2026-05-04 17:48 | -16.42798 | -149.08325 | 26849 ft | 489 kts | 18° |
| 2026-05-04 17:48 | -16.39550 | -149.07239 | 27143 ft | 493 kts | 18° |
| 2026-05-04 17:49 | -16.36260 | -149.06141 | 27534 ft | 495 kts | 18° |
| 2026-05-04 17:49 | -16.32962 | -149.05040 | 27883 ft | 498 kts | 18° |
| 2026-05-04 17:49 | -16.29664 | -149.03940 | 28190 ft | 501 kts | 18° |
| 2026-05-04 17:49 | -16.26315 | -149.02823 | 28510 ft | 504 kts | 18° |
| 2026-05-04 17:50 | -16.22962 | -149.01706 | 28796 ft | 507 kts | 18° |
| 2026-05-04 17:50 | -16.19628 | -149.00595 | 29076 ft | 510 kts | 18° |
| 2026-05-04 17:50 | -16.16238 | -148.99466 | 29345 ft | 513 kts | 18° |
| 2026-05-04 17:50 | -16.12832 | -148.98332 | 29621 ft | 515 kts | 18° |
| 2026-05-04 17:51 | -16.09402 | -148.97191 | 29938 ft | 516 kts | 19° |
| 2026-05-04 17:51 | -16.05975 | -148.96051 | 30298 ft | 516 kts | 19° |
| 2026-05-04 17:51 | -16.02559 | -148.94916 | 30631 ft | 515 kts | 18° |
| 2026-05-04 17:51 | -15.99144 | -148.93780 | 30950 ft | 516 kts | 18° |
| 2026-05-04 17:52 | -15.95725 | -148.92644 | 31257 ft | 516 kts | 18° |
| 2026-05-04 17:52 | -15.92296 | -148.91505 | 31579 ft | 516 kts | 18° |
| 2026-05-04 17:52 | -15.88869 | -148.90367 | 31848 ft | 518 kts | 18° |
| 2026-05-04 17:52 | -15.85429 | -148.89225 | 32142 ft | 518 kts | 18° |
| 2026-05-04 17:53 | -15.82009 | -148.88091 | 32472 ft | 518 kts | 18° |
| 2026-05-04 17:53 | -15.78592 | -148.86957 | 32804 ft | 518 kts | 18° |
| 2026-05-04 17:53 | -15.75183 | -148.85827 | 33118 ft | 518 kts | 18° |
| 2026-05-04 17:53 | -15.71726 | -148.84681 | 33416 ft | 518 kts | 18° |
| 2026-05-04 17:54 | -15.68275 | -148.83537 | 33707 ft | 518 kts | 18° |
| 2026-05-04 17:54 | -15.64868 | -148.82409 | 34000 ft | 519 kts | 18° |
| 2026-05-04 17:54 | -15.61407 | -148.81263 | 34264 ft | 519 kts | 18° |
| 2026-05-04 17:54 | -15.57989 | -148.80131 | 34496 ft | 519 kts | 18° |
| 2026-05-04 17:55 | -15.54530 | -148.78987 | 34732 ft | 520 kts | 18° |
| 2026-05-04 17:55 | -15.51088 | -148.77848 | 34915 ft | 522 kts | 18° |
| 2026-05-04 17:55 | -15.44152 | -148.75555 | 34996 ft | 525 kts | 18° |
| 2026-05-04 17:56 | -15.37211 | -148.73262 | 34986 ft | 519 kts | 18° |
| 2026-05-04 17:56 | -15.30354 | -148.70998 | 34995 ft | 518 kts | 18° |
| 2026-05-04 17:57 | -15.23502 | -148.68738 | 34992 ft | 517 kts | 18° |
| 2026-05-04 17:57 | -15.16644 | -148.66477 | 34998 ft | 517 kts | 18° |
| 2026-05-04 17:58 | -15.09789 | -148.64218 | 34997 ft | 519 kts | 18° |
| 2026-05-04 17:58 | -15.02922 | -148.61957 | 34996 ft | 520 kts | 18° |
| 2026-05-04 17:59 | -14.96016 | -148.59685 | 34988 ft | 521 kts | 18° |
| 2026-05-04 18:00 | -14.85608 | -148.56264 | 34992 ft | 522 kts | 18° |
| 2026-05-04 18:00 | -14.78689 | -148.53991 | 34996 ft | 522 kts | 18° |
| 2026-05-04 18:01 | -14.71793 | -148.51728 | 34993 ft | 522 kts | 18° |
| 2026-05-04 18:01 | -14.64876 | -148.49459 | 34987 ft | 522 kts | 18° |
| 2026-05-04 18:02 | -14.55671 | -148.46442 | 34989 ft | 522 kts | 18° |
| 2026-05-04 18:02 | -14.48714 | -148.44163 | 34992 ft | 522 kts | 18° |
| 2026-05-04 18:03 | -14.41804 | -148.41901 | 34993 ft | 522 kts | 18° |
| 2026-05-04 18:03 | -14.34901 | -148.39643 | 34992 ft | 522 kts | 18° |
| 2026-05-04 18:04 | -14.27963 | -148.37375 | 34990 ft | 522 kts | 18° |
| 2026-05-04 18:05 | -14.17585 | -148.33986 | 34989 ft | 523 kts | 18° |
| 2026-05-04 18:05 | -14.10640 | -148.31719 | 34990 ft | 523 kts | 18° |
| 2026-05-04 18:06 | -14.00237 | -148.28327 | 34989 ft | 523 kts | 18° |
| 2026-05-04 18:06 | -13.93297 | -148.26066 | 34991 ft | 523 kts | 18° |
| 2026-05-04 18:07 | -13.86357 | -148.23806 | 34992 ft | 523 kts | 18° |
| 2026-05-04 18:07 | -13.79418 | -148.21548 | 34992 ft | 523 kts | 18° |
| 2026-05-04 18:08 | -13.72486 | -148.19294 | 34990 ft | 523 kts | 18° |
| 2026-05-04 18:08 | -13.65577 | -148.17048 | 34991 ft | 523 kts | 18° |
| 2026-05-04 18:09 | -13.51725 | -148.12550 | 34990 ft | 523 kts | 18° |
| 2026-05-04 18:10 | -13.44770 | -148.10294 | 34989 ft | 523 kts | 18° |
| 2026-05-04 18:10 | -13.37870 | -148.08057 | 34989 ft | 523 kts | 18° |
| 2026-05-04 18:11 | -13.30911 | -148.05802 | 34985 ft | 523 kts | 18° |
| 2026-05-04 18:11 | -13.23995 | -148.03562 | 34994 ft | 523 kts | 18° |
| 2026-05-04 18:12 | -13.17035 | -148.01309 | 34990 ft | 523 kts | 18° |
| 2026-05-04 18:12 | -13.10079 | -147.99060 | 34988 ft | 524 kts | 18° |
| 2026-05-04 18:13 | -13.03153 | -147.96821 | 34985 ft | 524 kts | 18° |
| 2026-05-04 18:14 | -12.92696 | -147.93443 | 34981 ft | 524 kts | 18° |
| 2026-05-04 18:14 | -12.85767 | -147.91207 | 34993 ft | 524 kts | 18° |
| 2026-05-04 18:15 | -12.71837 | -147.86714 | 34987 ft | 524 kts | 18° |
| 2026-05-04 18:16 | -12.64896 | -147.84477 | 34985 ft | 524 kts | 18° |
| 2026-05-04 18:16 | -12.57912 | -147.82228 | 34984 ft | 524 kts | 18° |
| 2026-05-04 18:17 | -12.47495 | -147.78876 | 34985 ft | 524 kts | 18° |
| 2026-05-04 18:18 | -12.37071 | -147.75524 | 34985 ft | 524 kts | 18° |
| 2026-05-04 18:18 | -12.30090 | -147.73282 | 34984 ft | 524 kts | 18° |
| 2026-05-04 18:19 | -12.19645 | -147.69928 | 34988 ft | 524 kts | 18° |
| 2026-05-04 18:19 | -12.12712 | -147.67703 | 34987 ft | 524 kts | 18° |
| 2026-05-04 18:20 | -12.05754 | -147.65472 | 34980 ft | 524 kts | 18° |
| 2026-05-04 18:20 | -11.98786 | -147.63239 | 34983 ft | 524 kts | 19° |
| 2026-05-04 18:21 | -11.91819 | -147.61007 | 34984 ft | 524 kts | 19° |
| 2026-05-04 18:21 | -11.84896 | -147.58790 | 34984 ft | 524 kts | 19° |
| 2026-05-04 18:22 | -11.77946 | -147.56566 | 34981 ft | 524 kts | 19° |
| 2026-05-04 18:22 | -11.70955 | -147.54330 | 34982 ft | 524 kts | 19° |
| 2026-05-04 18:23 | -11.64006 | -147.52109 | 34985 ft | 524 kts | 19° |
| 2026-05-04 18:23 | -11.57025 | -147.49878 | 34982 ft | 524 kts | 19° |
| 2026-05-04 18:24 | -11.50089 | -147.47663 | 34982 ft | 524 kts | 19° |
| 2026-05-04 18:24 | -11.43132 | -147.45443 | 34980 ft | 524 kts | 19° |
| 2026-05-04 18:25 | -11.36177 | -147.43225 | 34981 ft | 524 kts | 19° |
| 2026-05-04 18:25 | -11.29209 | -147.41003 | 34981 ft | 524 kts | 19° |
| 2026-05-04 18:26 | -11.22240 | -147.38782 | 34981 ft | 524 kts | 19° |
| 2026-05-04 18:26 | -11.15318 | -147.36578 | 34979 ft | 524 kts | 19° |
| 2026-05-04 18:27 | -11.08344 | -147.34357 | 34978 ft | 524 kts | 19° |
| 2026-05-04 18:27 | -11.01387 | -147.32143 | 34981 ft | 524 kts | 19° |
| 2026-05-04 18:28 | -10.94470 | -147.29943 | 34981 ft | 524 kts | 19° |
| 2026-05-04 18:28 | -10.87500 | -147.27728 | 34975 ft | 523 kts | 19° |
| 2026-05-04 18:29 | -10.80569 | -147.25526 | 34981 ft | 523 kts | 19° |
| 2026-05-04 18:29 | -10.73623 | -147.23320 | 34977 ft | 523 kts | 19° |
| 2026-05-04 18:30 | -10.63191 | -147.20009 | 34981 ft | 524 kts | 19° |
| 2026-05-04 18:31 | -10.56248 | -147.17806 | 34981 ft | 524 kts | 19° |
| 2026-05-04 18:31 | -10.49262 | -147.15592 | 34977 ft | 524 kts | 19° |
| 2026-05-04 18:32 | -10.42337 | -147.13397 | 34980 ft | 524 kts | 19° |
| 2026-05-04 18:32 | -10.35359 | -147.11187 | 34978 ft | 524 kts | 19° |
| 2026-05-04 18:33 | -10.28411 | -147.08987 | 34978 ft | 524 kts | 19° |
| 2026-05-04 18:33 | -10.21441 | -147.06781 | 34978 ft | 524 kts | 19° |
| 2026-05-04 18:34 | -10.14494 | -147.04583 | 34972 ft | 524 kts | 19° |
| 2026-05-04 18:34 | -10.07541 | -147.02384 | 34976 ft | 524 kts | 19° |
| 2026-05-04 18:35 | -10.00591 | -147.00183 | 34975 ft | 524 kts | 20° |
| 2026-05-04 18:35 | -9.93803 | -146.97568 | 34983 ft | 522 kts | 24° |
| 2026-05-04 18:36 | -9.87091 | -146.94808 | 34978 ft | 522 kts | 24° |
| 2026-05-04 18:36 | -9.80344 | -146.92042 | 34969 ft | 522 kts | 24° |
| 2026-05-04 18:37 | -9.73579 | -146.89294 | 34973 ft | 523 kts | 24° |
| 2026-05-04 18:37 | -9.66854 | -146.86574 | 34973 ft | 523 kts | 24° |
| 2026-05-04 18:38 | -9.60081 | -146.83837 | 34982 ft | 523 kts | 24° |
| 2026-05-04 18:38 | -9.53320 | -146.81103 | 34979 ft | 522 kts | 24° |
| 2026-05-04 18:39 | -9.46608 | -146.78390 | 34974 ft | 522 kts | 24° |
| 2026-05-04 18:39 | -9.39860 | -146.75663 | 34975 ft | 521 kts | 24° |
| 2026-05-04 18:40 | -9.33150 | -146.72953 | 34975 ft | 521 kts | 24° |
| 2026-05-04 18:40 | -9.26394 | -146.70225 | 34975 ft | 520 kts | 24° |
| 2026-05-04 18:41 | -9.19673 | -146.67513 | 34972 ft | 520 kts | 24° |
| 2026-05-04 18:41 | -9.12992 | -146.64818 | 34976 ft | 520 kts | 24° |
| 2026-05-04 18:42 | -9.06251 | -146.62100 | 34978 ft | 520 kts | 24° |
| 2026-05-04 18:42 | -8.99569 | -146.59406 | 34978 ft | 520 kts | 24° |
| 2026-05-04 18:43 | -8.92841 | -146.56695 | 34983 ft | 519 kts | 24° |
| 2026-05-04 18:43 | -8.86137 | -146.53996 | 34975 ft | 519 kts | 24° |
| 2026-05-04 18:44 | -8.79435 | -146.51297 | 34969 ft | 518 kts | 24° |
| 2026-05-04 18:44 | -8.72750 | -146.48607 | 34975 ft | 517 kts | 24° |
| 2026-05-04 18:45 | -8.66080 | -146.45924 | 34975 ft | 517 kts | 24° |
| 2026-05-04 18:45 | -8.59406 | -146.43240 | 34975 ft | 517 kts | 24° |
| 2026-05-04 18:46 | -8.52733 | -146.40558 | 34977 ft | 517 kts | 24° |
| 2026-05-04 18:46 | -8.46019 | -146.37860 | 34977 ft | 517 kts | 24° |
| 2026-05-04 18:47 | -8.39334 | -146.35175 | 34983 ft | 518 kts | 24° |
| 2026-05-04 18:47 | -8.32660 | -146.32495 | 34978 ft | 519 kts | 24° |
| 2026-05-04 18:48 | -8.25962 | -146.29807 | 34983 ft | 519 kts | 24° |
| 2026-05-04 18:48 | -8.19230 | -146.27106 | 34981 ft | 520 kts | 24° |
| 2026-05-04 18:49 | -8.12509 | -146.24410 | 34985 ft | 520 kts | 24° |
| 2026-05-04 18:49 | -8.05802 | -146.21721 | 34986 ft | 520 kts | 24° |
| 2026-05-04 18:50 | -7.99094 | -146.19032 | 34983 ft | 520 kts | 23° |
| 2026-05-04 18:50 | -7.92372 | -146.16339 | 34988 ft | 520 kts | 23° |
| 2026-05-04 18:51 | -7.85666 | -146.13654 | 34981 ft | 520 kts | 23° |
| 2026-05-04 18:51 | -7.78918 | -146.10952 | 34989 ft | 519 kts | 23° |
| 2026-05-04 18:52 | -7.72215 | -146.08269 | 34992 ft | 519 kts | 23° |
| 2026-05-04 18:52 | -7.65495 | -146.05581 | 34989 ft | 519 kts | 23° |
| 2026-05-04 18:53 | -7.58776 | -146.02893 | 34998 ft | 519 kts | 23° |
| 2026-05-04 18:53 | -7.52056 | -146.00206 | 34988 ft | 520 kts | 23° |
| 2026-05-04 18:54 | -7.45361 | -145.97530 | 34996 ft | 520 kts | 23° |
| 2026-05-04 18:54 | -7.38638 | -145.94844 | 34991 ft | 520 kts | 23° |
| 2026-05-04 18:55 | -7.31895 | -145.92151 | 34993 ft | 521 kts | 23° |
| 2026-05-04 18:55 | -7.22892 | -145.88556 | 34990 ft | 521 kts | 23° |
| 2026-05-04 18:56 | -7.16168 | -145.85872 | 34988 ft | 522 kts | 23° |
| 2026-05-04 18:56 | -7.09418 | -145.83179 | 34990 ft | 522 kts | 23° |
| 2026-05-04 18:57 | -7.02684 | -145.80494 | 34989 ft | 522 kts | 23° |
| 2026-05-04 18:57 | -6.95922 | -145.77797 | 34994 ft | 523 kts | 23° |
| 2026-05-04 18:58 | -6.89152 | -145.75099 | 34985 ft | 523 kts | 22° |
| 2026-05-04 18:58 | -6.82382 | -145.72401 | 34989 ft | 523 kts | 22° |
| 2026-05-04 18:59 | -6.75619 | -145.69707 | 34995 ft | 523 kts | 22° |
| 2026-05-04 18:59 | -6.68897 | -145.67030 | 34982 ft | 523 kts | 22° |
| 2026-05-04 19:00 | -6.62130 | -145.64335 | 34987 ft | 523 kts | 22° |
| 2026-05-04 19:00 | -6.55342 | -145.61634 | 34984 ft | 523 kts | 22° |
| 2026-05-04 19:01 | -6.50225 | -145.59598 | 34991 ft | 523 kts | 22° |
| 2026-05-04 19:01 | -6.43447 | -145.56901 | 34985 ft | 523 kts | 22° |
| 2026-05-04 19:02 | -6.36673 | -145.54207 | 34987 ft | 524 kts | 22° |
| 2026-05-04 19:02 | -6.29933 | -145.51527 | 34981 ft | 524 kts | 22° |
| 2026-05-04 19:03 | -6.23147 | -145.48830 | 34988 ft | 524 kts | 22° |
| 2026-05-04 19:03 | -6.16374 | -145.46139 | 34986 ft | 525 kts | 22° |
| 2026-05-04 19:04 | -6.09564 | -145.43433 | 34987 ft | 525 kts | 22° |
| 2026-05-04 19:04 | -6.02778 | -145.40738 | 34986 ft | 525 kts | 22° |
| 2026-05-04 19:05 | -5.95997 | -145.38046 | 34986 ft | 525 kts | 22° |
| 2026-05-04 19:05 | -5.89204 | -145.35349 | 34985 ft | 525 kts | 22° |
| 2026-05-04 19:06 | -5.82413 | -145.32655 | 34985 ft | 525 kts | 22° |
| 2026-05-04 19:06 | -5.75625 | -145.29961 | 34986 ft | 524 kts | 22° |
| 2026-05-04 19:07 | -5.68833 | -145.27268 | 34987 ft | 524 kts | 22° |
| 2026-05-04 19:07 | -5.62088 | -145.24593 | 34984 ft | 525 kts | 22° |
| 2026-05-04 19:08 | -5.55279 | -145.21893 | 34989 ft | 525 kts | 22° |
| 2026-05-04 19:08 | -5.48494 | -145.19204 | 34985 ft | 525 kts | 22° |
| 2026-05-04 19:09 | -5.41695 | -145.16510 | 34985 ft | 525 kts | 22° |
| 2026-05-04 19:09 | -5.34870 | -145.13807 | 34984 ft | 526 kts | 22° |
| 2026-05-04 19:10 | -5.28081 | -145.11118 | 34985 ft | 526 kts | 22° |
| 2026-05-04 19:10 | -5.21284 | -145.08426 | 34985 ft | 526 kts | 22° |
| 2026-05-04 19:11 | -5.14484 | -145.05734 | 34987 ft | 526 kts | 22° |
| 2026-05-04 19:11 | -5.07686 | -145.03043 | 34982 ft | 526 kts | 22° |
| 2026-05-04 19:12 | -4.97481 | -144.99000 | 34976 ft | 525 kts | 22° |
| 2026-05-04 19:13 | -4.90705 | -144.96280 | 34983 ft | 525 kts | 22° |
| 2026-05-04 19:13 | -4.83931 | -144.93548 | 34979 ft | 524 kts | 22° |
| 2026-05-04 19:14 | -4.77520 | -144.90967 | 34980 ft | 524 kts | 22° |
| 2026-05-04 19:14 | -4.70768 | -144.88252 | 34983 ft | 524 kts | 22° |
| 2026-05-04 19:15 | -4.63972 | -144.85522 | 34979 ft | 524 kts | 22° |
| 2026-05-04 19:15 | -4.57217 | -144.82809 | 34981 ft | 523 kts | 22° |
| 2026-05-04 19:16 | -4.50462 | -144.80096 | 34979 ft | 523 kts | 22° |
| 2026-05-04 19:16 | -4.43684 | -144.77375 | 34977 ft | 524 kts | 22° |
| 2026-05-04 19:17 | -4.36921 | -144.74659 | 34983 ft | 523 kts | 22° |
| 2026-05-04 19:17 | -4.30193 | -144.71959 | 34978 ft | 523 kts | 22° |
| 2026-05-04 19:18 | -4.23450 | -144.69253 | 34975 ft | 522 kts | 22° |
| 2026-05-04 19:18 | -4.16716 | -144.66551 | 34977 ft | 522 kts | 22° |
| 2026-05-04 19:19 | -4.09980 | -144.63849 | 34977 ft | 521 kts | 22° |
| 2026-05-04 19:19 | -4.03249 | -144.61149 | 34977 ft | 521 kts | 22° |
| 2026-05-04 19:20 | -3.96536 | -144.58458 | 34978 ft | 521 kts | 22° |
| 2026-05-04 19:20 | -3.89794 | -144.55754 | 34978 ft | 521 kts | 22° |
| 2026-05-04 19:21 | -3.83096 | -144.53069 | 34978 ft | 521 kts | 22° |
| 2026-05-04 19:21 | -3.76382 | -144.50378 | 34979 ft | 521 kts | 22° |
| 2026-05-04 19:22 | -3.69622 | -144.47669 | 34983 ft | 520 kts | 22° |
| 2026-05-04 19:22 | -3.62937 | -144.44991 | 34973 ft | 519 kts | 22° |
| 2026-05-04 19:23 | -3.56245 | -144.42310 | 34974 ft | 518 kts | 22° |
| 2026-05-04 19:23 | -3.49554 | -144.39630 | 34977 ft | 517 kts | 22° |
| 2026-05-04 19:24 | -3.42875 | -144.36955 | 34977 ft | 516 kts | 22° |
| 2026-05-04 19:24 | -3.36218 | -144.34290 | 34983 ft | 514 kts | 22° |
| 2026-05-04 19:25 | -3.29597 | -144.31639 | 34973 ft | 513 kts | 22° |
| 2026-05-04 19:25 | -3.23019 | -144.29006 | 34973 ft | 511 kts | 22° |
| 2026-05-04 19:26 | -3.16413 | -144.26361 | 34977 ft | 510 kts | 22° |
| 2026-05-04 19:26 | -3.09816 | -144.23721 | 34980 ft | 510 kts | 22° |
| 2026-05-04 19:27 | -3.03236 | -144.21088 | 34979 ft | 509 kts | 22° |
| 2026-05-04 19:27 | -2.96663 | -144.18459 | 34977 ft | 508 kts | 22° |
| 2026-05-04 19:28 | -2.90095 | -144.15832 | 34978 ft | 508 kts | 22° |
| 2026-05-04 19:28 | -2.83551 | -144.13214 | 34978 ft | 508 kts | 22° |
| 2026-05-04 19:29 | -2.76977 | -144.10585 | 34976 ft | 508 kts | 22° |
| 2026-05-04 19:29 | -2.70413 | -144.07960 | 34976 ft | 509 kts | 22° |
| 2026-05-04 19:30 | -2.63867 | -144.05343 | 34978 ft | 509 kts | 22° |
| 2026-05-04 19:30 | -2.57280 | -144.02709 | 34979 ft | 509 kts | 22° |
| 2026-05-04 19:31 | -2.50682 | -144.00072 | 34979 ft | 510 kts | 22° |
| 2026-05-04 19:31 | -2.44129 | -143.97452 | 34977 ft | 510 kts | 21° |
| 2026-05-04 19:32 | -2.37541 | -143.94819 | 34976 ft | 510 kts | 21° |
| 2026-05-04 19:32 | -2.30936 | -143.92180 | 34974 ft | 510 kts | 21° |
| 2026-05-04 19:33 | -2.24338 | -143.89543 | 34975 ft | 510 kts | 21° |
| 2026-05-04 19:33 | -2.17783 | -143.86924 | 34975 ft | 510 kts | 21° |
| 2026-05-04 19:34 | -2.11206 | -143.84297 | 34975 ft | 510 kts | 21° |
| 2026-05-04 19:34 | -2.04591 | -143.81654 | 34973 ft | 510 kts | 21° |
| 2026-05-04 19:35 | -1.98012 | -143.79026 | 34970 ft | 510 kts | 21° |
| 2026-05-04 19:35 | -1.91409 | -143.76389 | 34970 ft | 510 kts | 21° |
| 2026-05-04 19:36 | -1.84826 | -143.73760 | 34974 ft | 510 kts | 21° |
| 2026-05-04 19:36 | -1.78222 | -143.71123 | 34970 ft | 510 kts | 21° |
| 2026-05-04 19:37 | -1.71634 | -143.68492 | 34972 ft | 510 kts | 21° |
| 2026-05-04 19:37 | -1.65054 | -143.65865 | 34972 ft | 510 kts | 21° |
| 2026-05-04 19:38 | -1.58474 | -143.63238 | 34969 ft | 510 kts | 21° |
| 2026-05-04 19:38 | -1.51845 | -143.60591 | 34969 ft | 510 kts | 21° |
| 2026-05-04 19:39 | -1.45291 | -143.57975 | 34970 ft | 510 kts | 21° |
| 2026-05-04 19:39 | -1.38701 | -143.55345 | 34970 ft | 510 kts | 21° |
| 2026-05-04 19:40 | -1.32092 | -143.52707 | 34970 ft | 510 kts | 21° |
| 2026-05-04 19:40 | -1.25528 | -143.50087 | 34969 ft | 510 kts | 21° |
| 2026-05-04 19:41 | -1.18944 | -143.47459 | 34971 ft | 509 kts | 21° |
| 2026-05-04 19:41 | -1.12371 | -143.44836 | 34973 ft | 509 kts | 21° |
| 2026-05-04 19:42 | -1.05807 | -143.42216 | 34973 ft | 509 kts | 21° |
| 2026-05-04 19:42 | -0.99230 | -143.39592 | 34972 ft | 509 kts | 21° |
| 2026-05-04 19:43 | -0.92668 | -143.36973 | 34975 ft | 509 kts | 21° |
| 2026-05-04 19:43 | -0.86100 | -143.34352 | 34973 ft | 509 kts | 21° |
| 2026-05-04 19:44 | -0.79523 | -143.31728 | 34973 ft | 509 kts | 21° |
| 2026-05-04 19:44 | -0.72970 | -143.29114 | 34973 ft | 509 kts | 21° |
| 2026-05-04 19:45 | -0.66376 | -143.26483 | 34974 ft | 509 kts | 21° |
| 2026-05-04 19:45 | -0.60909 | -143.24302 | 34971 ft | 509 kts | 21° |
| 2026-05-04 19:46 | -0.54346 | -143.21683 | 34972 ft | 509 kts | 21° |
| 2026-05-04 19:46 | -0.47782 | -143.19065 | 34970 ft | 509 kts | 21° |
| 2026-05-04 19:47 | -0.41200 | -143.16439 | 34970 ft | 509 kts | 21° |
| 2026-05-04 19:47 | -0.34593 | -143.13803 | 34971 ft | 509 kts | 21° |
| 2026-05-04 19:48 | -0.28024 | -143.11182 | 34964 ft | 510 kts | 20° |
| 2026-05-04 19:48 | -0.21429 | -143.08552 | 34968 ft | 510 kts | 20° |
| 2026-05-04 19:49 | -0.14838 | -143.05922 | 34971 ft | 510 kts | 20° |
| 2026-05-04 19:49 | -0.08240 | -143.03289 | 34966 ft | 510 kts | 20° |
| 2026-05-04 19:50 | -0.01641 | -143.00656 | 34970 ft | 510 kts | 20° |
| 2026-05-04 19:50 | 0.04945 | -142.98132 | 34961 ft | 510 kts | 18° |
| 2026-05-04 19:51 | 0.11634 | -142.95785 | 34966 ft | 509 kts | 17° |
| 2026-05-04 19:51 | 0.18335 | -142.93450 | 34966 ft | 509 kts | 17° |
| 2026-05-04 19:52 | 0.25017 | -142.91087 | 34966 ft | 509 kts | 18° |
| 2026-05-04 19:52 | 0.31686 | -142.88708 | 34963 ft | 509 kts | 18° |
| 2026-05-04 19:53 | 0.38304 | -142.86344 | 34962 ft | 508 kts | 18° |
| 2026-05-04 19:53 | 0.44965 | -142.83966 | 34967 ft | 508 kts | 18° |
| 2026-05-04 19:54 | 0.51638 | -142.81586 | 34967 ft | 508 kts | 18° |
| 2026-05-04 19:54 | 0.58308 | -142.79207 | 34968 ft | 508 kts | 18° |
| 2026-05-04 19:55 | 0.64971 | -142.76830 | 34961 ft | 508 kts | 17° |
| 2026-05-04 19:55 | 0.71592 | -142.74468 | 34963 ft | 508 kts | 17° |
| 2026-05-04 19:56 | 0.78245 | -142.72095 | 34962 ft | 507 kts | 17° |
| 2026-05-04 19:56 | 0.84892 | -142.69723 | 34964 ft | 507 kts | 17° |
| 2026-05-04 19:57 | 0.91530 | -142.67355 | 34969 ft | 507 kts | 17° |
| 2026-05-04 19:57 | 0.98183 | -142.64982 | 34964 ft | 506 kts | 17° |
| 2026-05-04 19:58 | 1.04820 | -142.62613 | 34962 ft | 506 kts | 17° |
| 2026-05-04 19:58 | 1.11401 | -142.60265 | 34961 ft | 505 kts | 17° |
| 2026-05-04 19:59 | 1.18031 | -142.57899 | 34962 ft | 505 kts | 17° |
| 2026-05-04 19:59 | 1.24664 | -142.55532 | 34959 ft | 505 kts | 16° |
| 2026-05-04 20:00 | 1.31243 | -142.53185 | 34957 ft | 505 kts | 16° |
| 2026-05-04 20:00 | 1.37861 | -142.50824 | 34961 ft | 504 kts | 16° |
| 2026-05-04 20:01 | 1.44471 | -142.48464 | 34961 ft | 504 kts | 16° |
| 2026-05-04 20:01 | 1.51081 | -142.46105 | 34957 ft | 504 kts | 16° |
| 2026-05-04 20:02 | 1.57692 | -142.43745 | 34956 ft | 504 kts | 16° |
| 2026-05-04 20:02 | 1.64304 | -142.41385 | 34959 ft | 505 kts | 16° |
| 2026-05-04 20:03 | 1.70919 | -142.39023 | 34958 ft | 505 kts | 16° |
| 2026-05-04 20:03 | 1.77546 | -142.36657 | 34963 ft | 505 kts | 16° |
| 2026-05-04 20:04 | 1.84131 | -142.34306 | 34958 ft | 505 kts | 16° |
| 2026-05-04 20:04 | 1.90759 | -142.31939 | 34955 ft | 505 kts | 16° |
| 2026-05-04 20:05 | 1.97378 | -142.29576 | 34955 ft | 505 kts | 16° |
| 2026-05-04 20:05 | 2.04001 | -142.27210 | 34951 ft | 505 kts | 16° |
| 2026-05-04 20:06 | 2.10621 | -142.24845 | 34950 ft | 504 kts | 16° |
| 2026-05-04 20:06 | 2.17229 | -142.22485 | 34950 ft | 504 kts | 16° |
| 2026-05-04 20:07 | 2.23831 | -142.20127 | 34949 ft | 504 kts | 16° |
| 2026-05-04 20:07 | 2.30392 | -142.17783 | 34950 ft | 503 kts | 16° |
| 2026-05-04 20:08 | 2.36988 | -142.15426 | 34952 ft | 503 kts | 16° |
| 2026-05-04 20:08 | 2.43589 | -142.13067 | 34952 ft | 503 kts | 16° |
| 2026-05-04 20:09 | 2.50182 | -142.10711 | 34952 ft | 503 kts | 16° |
| 2026-05-04 20:09 | 2.56782 | -142.08352 | 34949 ft | 503 kts | 16° |
| 2026-05-04 20:10 | 2.63377 | -142.05995 | 34952 ft | 503 kts | 16° |
| 2026-05-04 20:10 | 2.69937 | -142.03649 | 34955 ft | 503 kts | 16° |
| 2026-05-04 20:11 | 2.76535 | -142.01290 | 34947 ft | 503 kts | 16° |
| 2026-05-04 20:11 | 2.83122 | -141.98935 | 34950 ft | 503 kts | 16° |
| 2026-05-04 20:12 | 2.89725 | -141.96573 | 34949 ft | 503 kts | 16° |
| 2026-05-04 20:12 | 2.96297 | -141.94223 | 34952 ft | 502 kts | 16° |
| 2026-05-04 20:13 | 3.02888 | -141.91865 | 34958 ft | 502 kts | 16° |
| 2026-05-04 20:13 | 3.09460 | -141.89514 | 34947 ft | 502 kts | 16° |
| 2026-05-04 20:14 | 3.16018 | -141.87167 | 34949 ft | 501 kts | 16° |
| 2026-05-04 20:14 | 3.22579 | -141.84819 | 34952 ft | 501 kts | 16° |
| 2026-05-04 20:15 | 3.29172 | -141.82459 | 34952 ft | 501 kts | 16° |
| 2026-05-04 20:15 | 3.35712 | -141.80118 | 34947 ft | 501 kts | 16° |
| 2026-05-04 20:16 | 3.42285 | -141.77764 | 34951 ft | 500 kts | 16° |
| 2026-05-04 20:16 | 3.48792 | -141.75408 | 34945 ft | 501 kts | 18° |
| 2026-05-04 20:17 | 3.55073 | -141.72246 | 34961 ft | 505 kts | 26° |
| 2026-05-04 20:17 | 3.61149 | -141.68723 | 34954 ft | 505 kts | 27° |
| 2026-05-04 20:18 | 3.67224 | -141.65208 | 34941 ft | 505 kts | 26° |
| 2026-05-04 20:18 | 3.73319 | -141.61718 | 34958 ft | 504 kts | 26° |
| 2026-05-04 20:19 | 3.79420 | -141.58243 | 34957 ft | 504 kts | 26° |
| 2026-05-04 20:19 | 3.85511 | -141.54776 | 34944 ft | 504 kts | 26° |
| 2026-05-04 20:20 | 3.91579 | -141.51319 | 34956 ft | 503 kts | 26° |
| 2026-05-04 20:20 | 3.97660 | -141.47852 | 34940 ft | 502 kts | 26° |
| 2026-05-04 20:21 | 4.03694 | -141.44411 | 34939 ft | 501 kts | 26° |
| 2026-05-04 20:21 | 4.12774 | -141.39233 | 34953 ft | 500 kts | 26° |
| 2026-05-04 20:22 | 4.18803 | -141.35794 | 34951 ft | 500 kts | 26° |
| 2026-05-04 20:22 | 4.24862 | -141.32338 | 34948 ft | 499 kts | 27° |
| 2026-05-04 20:23 | 4.30892 | -141.28897 | 34952 ft | 499 kts | 27° |
| 2026-05-04 20:23 | 4.36914 | -141.25460 | 34947 ft | 499 kts | 27° |
| 2026-05-04 20:24 | 4.42943 | -141.22019 | 34948 ft | 499 kts | 27° |
| 2026-05-04 20:24 | 4.48986 | -141.18569 | 34947 ft | 499 kts | 27° |
| 2026-05-04 20:25 | 4.54990 | -141.15140 | 34947 ft | 499 kts | 27° |
| 2026-05-04 20:25 | 4.61022 | -141.11695 | 34948 ft | 499 kts | 27° |
| 2026-05-04 20:26 | 4.67082 | -141.08233 | 34949 ft | 500 kts | 27° |
| 2026-05-04 20:26 | 4.73111 | -141.04789 | 34948 ft | 500 kts | 27° |
| 2026-05-04 20:27 | 4.79153 | -141.01336 | 34949 ft | 500 kts | 27° |
| 2026-05-04 20:27 | 4.85182 | -140.97889 | 34951 ft | 500 kts | 27° |
| 2026-05-04 20:28 | 4.91210 | -140.94442 | 34948 ft | 500 kts | 27° |
| 2026-05-04 20:28 | 4.97243 | -140.90992 | 34950 ft | 500 kts | 27° |
| 2026-05-04 20:29 | 5.03302 | -140.87527 | 34950 ft | 499 kts | 27° |
| 2026-05-04 20:29 | 5.09316 | -140.84086 | 34933 ft | 499 kts | 27° |
| 2026-05-04 20:30 | 5.15324 | -140.80648 | 34950 ft | 498 kts | 27° |
| 2026-05-04 20:30 | 5.21346 | -140.77202 | 34946 ft | 498 kts | 27° |
| 2026-05-04 20:31 | 5.27383 | -140.73745 | 34948 ft | 498 kts | 27° |
| 2026-05-04 20:31 | 5.33383 | -140.70310 | 34948 ft | 497 kts | 27° |
| 2026-05-04 20:32 | 5.39396 | -140.66866 | 34947 ft | 498 kts | 27° |
| 2026-05-04 20:32 | 5.45397 | -140.63428 | 34944 ft | 498 kts | 27° |
| 2026-05-04 20:33 | 5.51426 | -140.59974 | 34948 ft | 498 kts | 27° |
| 2026-05-04 20:33 | 5.57423 | -140.56537 | 34949 ft | 498 kts | 27° |
| 2026-05-04 20:34 | 5.63428 | -140.53094 | 34944 ft | 498 kts | 27° |
| 2026-05-04 20:34 | 5.69435 | -140.49650 | 34948 ft | 498 kts | 27° |
| 2026-05-04 20:35 | 5.75479 | -140.46183 | 34945 ft | 499 kts | 27° |
| 2026-05-04 20:35 | 5.81479 | -140.42741 | 34945 ft | 499 kts | 27° |
| 2026-05-04 20:36 | 5.87525 | -140.39272 | 34952 ft | 499 kts | 28° |
| 2026-05-04 20:36 | 5.93534 | -140.35823 | 34946 ft | 499 kts | 28° |
| 2026-05-04 20:37 | 5.98583 | -140.32924 | 34946 ft | 499 kts | 27° |
| 2026-05-04 20:37 | 6.04610 | -140.29463 | 34944 ft | 500 kts | 28° |
| 2026-05-04 20:38 | 6.10638 | -140.26000 | 34949 ft | 500 kts | 28° |
| 2026-05-04 20:38 | 6.16669 | -140.22536 | 34947 ft | 500 kts | 28° |
| 2026-05-04 20:39 | 6.22706 | -140.19066 | 34946 ft | 500 kts | 28° |
| 2026-05-04 20:39 | 6.28737 | -140.15599 | 34942 ft | 500 kts | 28° |
| 2026-05-04 20:40 | 6.34752 | -140.12140 | 34945 ft | 500 kts | 28° |
| 2026-05-04 20:40 | 6.40805 | -140.08659 | 34946 ft | 499 kts | 28° |
| 2026-05-04 20:41 | 6.46825 | -140.05196 | 34947 ft | 500 kts | 28° |
| 2026-05-04 20:41 | 6.52845 | -140.01731 | 34949 ft | 500 kts | 28° |
| 2026-05-04 20:42 | 6.58888 | -139.98252 | 34946 ft | 500 kts | 28° |
| 2026-05-04 20:42 | 6.64898 | -139.94792 | 34948 ft | 500 kts | 28° |
| 2026-05-04 20:43 | 6.70964 | -139.91298 | 34948 ft | 500 kts | 28° |
| 2026-05-04 20:43 | 6.76987 | -139.87828 | 34942 ft | 501 kts | 28° |
| 2026-05-04 20:44 | 6.83053 | -139.84332 | 34946 ft | 501 kts | 28° |
| 2026-05-04 20:44 | 6.89088 | -139.80853 | 34948 ft | 501 kts | 28° |
| 2026-05-04 20:45 | 6.95131 | -139.77368 | 34945 ft | 501 kts | 28° |
| 2026-05-04 20:45 | 7.01168 | -139.73886 | 34944 ft | 501 kts | 28° |
| 2026-05-04 20:46 | 7.07239 | -139.70383 | 34947 ft | 501 kts | 28° |
| 2026-05-04 20:46 | 7.13265 | -139.66906 | 34945 ft | 501 kts | 28° |
| 2026-05-04 20:47 | 7.19316 | -139.63412 | 34945 ft | 501 kts | 28° |
| 2026-05-04 20:47 | 7.25381 | -139.59909 | 34944 ft | 501 kts | 28° |
| 2026-05-04 20:48 | 7.31409 | -139.56427 | 34947 ft | 502 kts | 28° |
| 2026-05-04 20:48 | 7.37454 | -139.52934 | 34946 ft | 502 kts | 28° |
| 2026-05-04 20:49 | 7.43508 | -139.49434 | 34944 ft | 502 kts | 28° |
| 2026-05-04 20:49 | 7.49598 | -139.45912 | 34945 ft | 502 kts | 28° |
| 2026-05-04 20:50 | 7.55659 | -139.42406 | 34945 ft | 503 kts | 28° |
| 2026-05-04 20:50 | 7.61714 | -139.38903 | 34944 ft | 504 kts | 28° |
| 2026-05-04 20:51 | 7.67794 | -139.35383 | 34948 ft | 504 kts | 28° |
| 2026-05-04 20:51 | 7.73864 | -139.31868 | 34949 ft | 504 kts | 28° |
| 2026-05-04 20:52 | 7.79944 | -139.28347 | 34934 ft | 505 kts | 28° |
| 2026-05-04 20:52 | 7.86054 | -139.24806 | 34953 ft | 505 kts | 28° |
| 2026-05-04 20:53 | 7.92145 | -139.21276 | 34976 ft | 507 kts | 28° |
| 2026-05-04 20:53 | 7.95214 | -139.19497 | 35289 ft | 505 kts | 28° |
| 2026-05-04 20:53 | 7.98224 | -139.17752 | 35709 ft | 502 kts | 28° |
| 2026-05-04 20:54 | 8.01260 | -139.15991 | 36057 ft | 500 kts | 28° |
| 2026-05-04 20:54 | 8.04283 | -139.14237 | 36351 ft | 500 kts | 28° |
| 2026-05-04 20:54 | 8.07267 | -139.12506 | 36571 ft | 501 kts | 28° |
| 2026-05-04 20:54 | 8.10295 | -139.10748 | 36912 ft | 499 kts | 28° |
| 2026-05-04 20:55 | 8.16330 | -139.07247 | 36949 ft | 499 kts | 28° |
| 2026-05-04 20:55 | 8.22351 | -139.03751 | 36944 ft | 499 kts | 28° |
| 2026-05-04 20:56 | 8.28366 | -139.00256 | 36954 ft | 500 kts | 28° |
| 2026-05-04 20:56 | 8.34383 | -138.96760 | 36948 ft | 501 kts | 28° |
| 2026-05-04 20:57 | 8.40433 | -138.93244 | 36950 ft | 502 kts | 28° |
| 2026-05-04 20:57 | 8.46492 | -138.89722 | 36952 ft | 502 kts | 28° |
| 2026-05-04 20:58 | 8.52541 | -138.86202 | 36950 ft | 501 kts | 28° |
| 2026-05-04 20:58 | 8.58570 | -138.82694 | 36956 ft | 501 kts | 28° |
| 2026-05-04 20:59 | 8.64616 | -138.79175 | 36954 ft | 501 kts | 28° |
| 2026-05-04 20:59 | 8.70650 | -138.75661 | 36953 ft | 500 kts | 28° |
| 2026-05-04 21:00 | 8.76691 | -138.72142 | 36952 ft | 500 kts | 28° |
| 2026-05-04 21:00 | 8.82693 | -138.68645 | 36953 ft | 501 kts | 28° |
| 2026-05-04 21:01 | 8.88758 | -138.65110 | 36959 ft | 501 kts | 28° |
| 2026-05-04 21:01 | 8.94806 | -138.61582 | 36959 ft | 501 kts | 28° |
| 2026-05-04 21:02 | 9.00809 | -138.58079 | 36953 ft | 501 kts | 28° |
| 2026-05-04 21:02 | 9.06854 | -138.54551 | 36955 ft | 502 kts | 28° |
| 2026-05-04 21:03 | 9.12901 | -138.51021 | 36959 ft | 502 kts | 28° |
| 2026-05-04 21:03 | 9.18950 | -138.47488 | 36957 ft | 502 kts | 28° |
| 2026-05-04 21:04 | 9.25013 | -138.43945 | 36955 ft | 502 kts | 28° |
| 2026-05-04 21:04 | 9.31040 | -138.40421 | 36958 ft | 502 kts | 28° |
| 2026-05-04 21:05 | 9.37098 | -138.36878 | 36959 ft | 502 kts | 28° |
| 2026-05-04 21:05 | 9.43112 | -138.33359 | 36962 ft | 501 kts | 28° |
| 2026-05-04 21:06 | 9.49151 | -138.29825 | 36964 ft | 501 kts | 28° |
| 2026-05-04 21:06 | 9.55198 | -138.26284 | 36960 ft | 501 kts | 28° |
| 2026-05-04 21:07 | 9.61230 | -138.22751 | 36962 ft | 501 kts | 28° |
| 2026-05-04 21:07 | 9.67238 | -138.19230 | 36969 ft | 501 kts | 28° |
| 2026-05-04 21:08 | 9.73278 | -138.15688 | 36964 ft | 502 kts | 28° |
| 2026-05-04 21:08 | 9.79324 | -138.12142 | 36967 ft | 502 kts | 28° |
| 2026-05-04 21:09 | 9.85388 | -138.08583 | 36969 ft | 503 kts | 28° |
| 2026-05-04 21:09 | 9.91406 | -138.05050 | 36964 ft | 503 kts | 28° |
| 2026-05-04 21:10 | 9.97483 | -138.01480 | 36966 ft | 504 kts | 28° |
| 2026-05-04 21:10 | 10.03431 | -137.97741 | 36968 ft | 504 kts | 32° |
| 2026-05-04 21:11 | 10.09228 | -137.93754 | 36973 ft | 504 kts | 32° |
| 2026-05-04 21:11 | 10.15028 | -137.89732 | 36976 ft | 504 kts | 32° |
| 2026-05-04 21:12 | 10.20835 | -137.85730 | 36970 ft | 504 kts | 32° |
| 2026-05-04 21:12 | 10.26636 | -137.81749 | 36971 ft | 503 kts | 32° |
| 2026-05-04 21:13 | 10.32412 | -137.77789 | 36971 ft | 502 kts | 32° |
| 2026-05-04 21:13 | 10.38206 | -137.73813 | 36974 ft | 502 kts | 32° |
| 2026-05-04 21:14 | 10.43989 | -137.69842 | 36974 ft | 501 kts | 32° |
| 2026-05-04 21:14 | 10.49767 | -137.65873 | 36975 ft | 501 kts | 32° |
| 2026-05-04 21:15 | 10.55549 | -137.61899 | 36972 ft | 501 kts | 32° |
| 2026-05-04 21:15 | 10.61324 | -137.57927 | 36981 ft | 501 kts | 32° |
| 2026-05-04 21:16 | 10.67063 | -137.53979 | 36974 ft | 502 kts | 32° |
| 2026-05-04 21:16 | 10.72851 | -137.49995 | 36980 ft | 502 kts | 32° |
| 2026-05-04 21:17 | 10.78648 | -137.46003 | 36983 ft | 502 kts | 32° |
| 2026-05-04 21:17 | 10.84441 | -137.42010 | 36981 ft | 502 kts | 32° |
| 2026-05-04 21:18 | 10.90202 | -137.38040 | 36978 ft | 503 kts | 32° |
| 2026-05-04 21:18 | 10.96015 | -137.34032 | 36980 ft | 504 kts | 32° |
| 2026-05-04 21:19 | 11.01834 | -137.30017 | 36979 ft | 504 kts | 32° |
| 2026-05-04 21:19 | 11.07613 | -137.26028 | 36982 ft | 505 kts | 32° |
| 2026-05-04 21:20 | 11.13436 | -137.22006 | 36983 ft | 505 kts | 32° |
| 2026-05-04 21:20 | 11.19265 | -137.17978 | 36987 ft | 506 kts | 32° |
| 2026-05-04 21:21 | 11.25091 | -137.13950 | 36981 ft | 506 kts | 32° |
| 2026-05-04 21:21 | 11.30899 | -137.09933 | 36985 ft | 506 kts | 32° |
| 2026-05-04 21:22 | 11.36725 | -137.05901 | 36981 ft | 506 kts | 32° |
| 2026-05-04 21:22 | 11.42556 | -137.01864 | 36982 ft | 506 kts | 32° |
| 2026-05-04 21:23 | 11.48353 | -136.97848 | 36984 ft | 506 kts | 32° |
| 2026-05-04 21:23 | 11.54171 | -136.93816 | 36984 ft | 505 kts | 32° |
| 2026-05-04 21:24 | 11.59983 | -136.89786 | 36988 ft | 505 kts | 32° |
| 2026-05-04 21:24 | 11.65810 | -136.85744 | 36986 ft | 505 kts | 32° |
| 2026-05-04 21:25 | 11.71572 | -136.81744 | 36986 ft | 504 kts | 32° |
| 2026-05-04 21:25 | 11.77370 | -136.77718 | 36991 ft | 504 kts | 32° |
| 2026-05-04 21:26 | 11.83166 | -136.73690 | 36998 ft | 504 kts | 32° |
| 2026-05-04 21:26 | 11.88025 | -136.70313 | 36995 ft | 504 kts | 32° |
| 2026-05-04 21:27 | 11.93789 | -136.66304 | 36995 ft | 504 kts | 32° |
| 2026-05-04 21:27 | 11.99585 | -136.62271 | 36996 ft | 504 kts | 32° |
| 2026-05-04 21:28 | 12.05392 | -136.58227 | 36997 ft | 504 kts | 32° |
| 2026-05-04 21:28 | 12.11186 | -136.54191 | 36993 ft | 504 kts | 32° |
| 2026-05-04 21:29 | 12.16940 | -136.50181 | 36995 ft | 504 kts | 32° |
| 2026-05-04 21:29 | 12.22731 | -136.46142 | 36998 ft | 504 kts | 32° |
| 2026-05-04 21:30 | 12.28528 | -136.42098 | 37000 ft | 504 kts | 32° |
| 2026-05-04 21:30 | 12.34319 | -136.38055 | 37001 ft | 504 kts | 32° |
| 2026-05-04 21:31 | 12.43028 | -136.31971 | 37004 ft | 504 kts | 32° |
| 2026-05-04 21:32 | 12.48790 | -136.27943 | 37003 ft | 504 kts | 32° |
| 2026-05-04 21:32 | 12.54518 | -136.23936 | 37002 ft | 505 kts | 32° |
| 2026-05-04 21:33 | 12.60293 | -136.19895 | 37011 ft | 505 kts | 32° |
| 2026-05-04 21:33 | 12.66088 | -136.15837 | 37008 ft | 505 kts | 32° |
| 2026-05-04 21:34 | 12.71897 | -136.11767 | 37006 ft | 505 kts | 32° |
| 2026-05-04 21:34 | 12.77701 | -136.07699 | 37008 ft | 505 kts | 32° |
| 2026-05-04 21:35 | 12.83505 | -136.03627 | 37011 ft | 506 kts | 32° |
| 2026-05-04 21:35 | 12.89311 | -135.99553 | 37007 ft | 506 kts | 32° |
| 2026-05-04 21:36 | 12.95122 | -135.95472 | 37009 ft | 505 kts | 32° |
| 2026-05-04 21:36 | 13.00918 | -135.91400 | 37012 ft | 506 kts | 32° |
| 2026-05-04 21:37 | 13.06721 | -135.87320 | 37014 ft | 506 kts | 32° |
| 2026-05-04 21:37 | 13.12503 | -135.83252 | 37011 ft | 506 kts | 32° |
| 2026-05-04 21:38 | 13.18311 | -135.79164 | 37020 ft | 506 kts | 32° |
| 2026-05-04 21:38 | 13.24117 | -135.75076 | 37015 ft | 506 kts | 32° |
| 2026-05-04 21:39 | 13.29906 | -135.70997 | 37015 ft | 506 kts | 32° |
| 2026-05-04 21:39 | 13.35716 | -135.66900 | 37016 ft | 507 kts | 32° |
| 2026-05-04 21:40 | 13.41535 | -135.62795 | 37023 ft | 507 kts | 32° |
| 2026-05-04 21:40 | 13.47346 | -135.58693 | 37015 ft | 508 kts | 32° |
| 2026-05-04 21:41 | 13.53168 | -135.54580 | 37021 ft | 508 kts | 32° |
| 2026-05-04 21:41 | 13.58947 | -135.50495 | 37016 ft | 508 kts | 32° |
| 2026-05-04 21:42 | 13.64770 | -135.46377 | 37016 ft | 508 kts | 32° |
| 2026-05-04 21:42 | 13.70609 | -135.42245 | 37018 ft | 508 kts | 32° |
| 2026-05-04 21:43 | 13.76397 | -135.38147 | 37016 ft | 508 kts | 32° |
| 2026-05-04 21:43 | 13.82220 | -135.34021 | 37022 ft | 507 kts | 32° |
| 2026-05-04 21:44 | 13.88045 | -135.29892 | 37021 ft | 507 kts | 32° |
| 2026-05-04 21:44 | 13.93859 | -135.25767 | 37028 ft | 507 kts | 32° |
| 2026-05-04 21:45 | 13.99665 | -135.21646 | 37025 ft | 507 kts | 32° |
| 2026-05-04 21:45 | 14.05487 | -135.17511 | 37026 ft | 507 kts | 32° |
| 2026-05-04 21:46 | 14.11295 | -135.13383 | 37028 ft | 508 kts | 32° |
| 2026-05-04 21:46 | 14.17099 | -135.09255 | 37030 ft | 508 kts | 32° |
| 2026-05-04 21:47 | 14.22921 | -135.05113 | 37033 ft | 509 kts | 32° |
| 2026-05-04 21:47 | 14.28747 | -135.00964 | 37046 ft | 509 kts | 32° |
| 2026-05-04 21:48 | 14.34574 | -134.96812 | 37034 ft | 510 kts | 32° |
| 2026-05-04 21:48 | 14.40410 | -134.92651 | 37040 ft | 511 kts | 32° |
| 2026-05-04 21:49 | 14.46255 | -134.88481 | 37042 ft | 512 kts | 32° |
| 2026-05-04 21:49 | 14.52103 | -134.84306 | 37037 ft | 512 kts | 32° |
| 2026-05-04 21:50 | 14.57957 | -134.80123 | 37040 ft | 512 kts | 32° |
| 2026-05-04 21:50 | 14.63804 | -134.75943 | 37041 ft | 513 kts | 32° |
| 2026-05-04 21:51 | 14.69667 | -134.71749 | 37039 ft | 513 kts | 32° |
| 2026-05-04 21:51 | 14.75543 | -134.67542 | 37041 ft | 513 kts | 32° |
| 2026-05-04 21:52 | 14.81414 | -134.63337 | 37039 ft | 513 kts | 32° |
| 2026-05-04 21:52 | 14.87287 | -134.59126 | 37044 ft | 513 kts | 32° |
| 2026-05-04 21:53 | 14.93152 | -134.54919 | 37042 ft | 514 kts | 32° |
| 2026-05-04 21:53 | 14.99026 | -134.50702 | 37046 ft | 514 kts | 32° |
| 2026-05-04 21:54 | 15.04936 | -134.46572 | 37045 ft | 513 kts | 31° |
| 2026-05-04 21:54 | 15.10890 | -134.42569 | 37047 ft | 513 kts | 30° |
| 2026-05-04 21:55 | 15.16902 | -134.38530 | 37050 ft | 514 kts | 30° |
| 2026-05-04 21:55 | 15.22889 | -134.34475 | 37055 ft | 515 kts | 30° |
| 2026-05-04 21:56 | 15.28859 | -134.30416 | 37052 ft | 516 kts | 30° |
| 2026-05-04 21:56 | 15.34861 | -134.26330 | 37051 ft | 516 kts | 30° |
| 2026-05-04 21:57 | 15.40872 | -134.22236 | 37049 ft | 517 kts | 30° |
| 2026-05-04 21:57 | 15.46860 | -134.18155 | 37052 ft | 517 kts | 30° |
| 2026-05-04 21:58 | 15.52873 | -134.14056 | 37052 ft | 518 kts | 30° |
| 2026-05-04 21:58 | 15.58892 | -134.09949 | 37056 ft | 518 kts | 30° |
| 2026-05-04 21:59 | 15.64932 | -134.05825 | 37053 ft | 519 kts | 30° |
| 2026-05-04 21:59 | 15.70955 | -134.01710 | 37061 ft | 519 kts | 30° |
| 2026-05-04 22:00 | 15.76979 | -133.97590 | 37055 ft | 520 kts | 30° |
| 2026-05-04 22:00 | 15.83006 | -133.93466 | 37055 ft | 520 kts | 30° |
| 2026-05-04 22:01 | 15.89038 | -133.89336 | 37060 ft | 520 kts | 30° |
| 2026-05-04 22:01 | 15.95113 | -133.85173 | 37061 ft | 520 kts | 30° |
| 2026-05-04 22:02 | 16.01115 | -133.81057 | 37060 ft | 520 kts | 30° |
| 2026-05-04 22:02 | 16.07151 | -133.76915 | 37064 ft | 520 kts | 30° |
| 2026-05-04 22:03 | 16.13177 | -133.72776 | 37059 ft | 520 kts | 30° |
| 2026-05-04 22:03 | 16.19245 | -133.68605 | 37056 ft | 520 kts | 30° |
| 2026-05-04 22:04 | 16.25284 | -133.64452 | 37061 ft | 521 kts | 30° |
| 2026-05-04 22:04 | 16.31293 | -133.60316 | 37075 ft | 521 kts | 31° |
| 2026-05-04 22:05 | 16.37384 | -133.56120 | 37074 ft | 522 kts | 31° |
| 2026-05-04 22:05 | 16.43423 | -133.51957 | 37076 ft | 523 kts | 31° |
| 2026-05-04 22:06 | 16.49482 | -133.47777 | 37073 ft | 524 kts | 31° |
| 2026-05-04 22:06 | 16.55561 | -133.43580 | 37075 ft | 525 kts | 31° |
| 2026-05-04 22:07 | 16.61658 | -133.39367 | 37068 ft | 526 kts | 31° |
| 2026-05-04 22:07 | 16.67737 | -133.35164 | 37074 ft | 527 kts | 31° |
| 2026-05-04 22:08 | 16.73855 | -133.30930 | 37071 ft | 528 kts | 31° |
| 2026-05-04 22:08 | 16.79985 | -133.26684 | 37072 ft | 529 kts | 30° |
| 2026-05-04 22:09 | 16.86126 | -133.22427 | 37077 ft | 529 kts | 30° |
| 2026-05-04 22:09 | 16.92265 | -133.18170 | 37077 ft | 530 kts | 30° |
| 2026-05-04 22:10 | 16.98413 | -133.13902 | 37078 ft | 530 kts | 30° |
| 2026-05-04 22:10 | 17.04520 | -133.09659 | 37079 ft | 530 kts | 30° |
| 2026-05-04 22:11 | 17.10658 | -133.05390 | 37081 ft | 530 kts | 30° |
| 2026-05-04 22:11 | 17.16794 | -133.01121 | 37078 ft | 529 kts | 30° |
| 2026-05-04 22:12 | 17.22924 | -132.96851 | 37081 ft | 529 kts | 30° |
| 2026-05-04 22:12 | 17.29067 | -132.92570 | 37079 ft | 529 kts | 30° |
| 2026-05-04 22:13 | 17.35158 | -132.88321 | 37081 ft | 528 kts | 30° |
| 2026-05-04 22:13 | 17.41269 | -132.84054 | 37084 ft | 529 kts | 30° |
| 2026-05-04 22:14 | 17.47397 | -132.79773 | 37080 ft | 530 kts | 30° |
| 2026-05-04 22:14 | 17.53537 | -132.75479 | 37090 ft | 530 kts | 30° |
| 2026-05-04 22:15 | 17.59671 | -132.71186 | 37085 ft | 531 kts | 30° |
| 2026-05-04 22:15 | 17.65817 | -132.66881 | 37083 ft | 531 kts | 30° |
| 2026-05-04 22:16 | 17.71945 | -132.62585 | 37082 ft | 533 kts | 30° |
| 2026-05-04 22:16 | 17.77092 | -132.58975 | 37096 ft | 534 kts | 30° |
| 2026-05-04 22:17 | 17.83287 | -132.54626 | 37096 ft | 536 kts | 30° |
| 2026-05-04 22:17 | 17.89489 | -132.50268 | 37093 ft | 537 kts | 30° |
| 2026-05-04 22:18 | 17.95699 | -132.45899 | 37089 ft | 537 kts | 30° |
| 2026-05-04 22:18 | 18.01913 | -132.41524 | 37100 ft | 538 kts | 29° |
| 2026-05-04 22:19 | 18.08139 | -132.37138 | 37092 ft | 539 kts | 29° |
| 2026-05-04 22:19 | 18.14359 | -132.32753 | 37079 ft | 540 kts | 29° |
| 2026-05-04 22:20 | 18.20587 | -132.28357 | 37088 ft | 540 kts | 29° |
| 2026-05-04 22:20 | 18.26828 | -132.23948 | 37084 ft | 540 kts | 29° |
| 2026-05-04 22:21 | 18.33060 | -132.19541 | 37094 ft | 540 kts | 28° |
| 2026-05-04 22:21 | 18.39287 | -132.15135 | 37091 ft | 540 kts | 28° |
| 2026-05-04 22:22 | 18.45513 | -132.10726 | 37091 ft | 540 kts | 28° |
| 2026-05-04 22:22 | 18.51737 | -132.06314 | 37094 ft | 540 kts | 28° |
| 2026-05-04 22:23 | 18.57974 | -132.01889 | 37092 ft | 540 kts | 28° |
| 2026-05-04 22:23 | 18.64194 | -131.97470 | 37112 ft | 540 kts | 27° |
| 2026-05-04 22:24 | 18.70425 | -131.93042 | 37095 ft | 541 kts | 27° |
| 2026-05-04 22:24 | 18.76653 | -131.88612 | 37093 ft | 541 kts | 27° |
| 2026-05-04 22:25 | 18.82896 | -131.84167 | 37095 ft | 541 kts | 27° |
| 2026-05-04 22:25 | 18.89138 | -131.79718 | 37096 ft | 541 kts | 27° |
| 2026-05-04 22:26 | 18.95360 | -131.75279 | 37092 ft | 541 kts | 27° |
| 2026-05-04 22:26 | 19.01614 | -131.70813 | 37096 ft | 541 kts | 27° |
| 2026-05-04 22:27 | 19.07836 | -131.66367 | 37095 ft | 541 kts | 27° |
| 2026-05-04 22:27 | 19.14043 | -131.61926 | 37096 ft | 541 kts | 27° |
| 2026-05-04 22:28 | 19.20298 | -131.57447 | 37095 ft | 541 kts | 27° |
| 2026-05-04 22:28 | 19.26535 | -131.52976 | 37103 ft | 541 kts | 26° |
| 2026-05-04 22:29 | 19.32733 | -131.48530 | 37091 ft | 542 kts | 26° |
| 2026-05-04 22:29 | 19.38983 | -131.44044 | 37103 ft | 542 kts | 26° |
| 2026-05-04 22:30 | 19.45234 | -131.39551 | 37099 ft | 542 kts | 26° |
| 2026-05-04 22:30 | 19.51496 | -131.35047 | 37098 ft | 543 kts | 26° |
| 2026-05-04 22:31 | 19.57711 | -131.30571 | 37128 ft | 543 kts | 26° |
| 2026-05-04 22:31 | 19.63992 | -131.26044 | 37105 ft | 544 kts | 26° |
| 2026-05-04 22:32 | 19.70250 | -131.21529 | 37094 ft | 544 kts | 26° |
| 2026-05-04 22:32 | 19.76500 | -131.17015 | 37099 ft | 544 kts | 26° |
| 2026-05-04 22:33 | 19.82739 | -131.12505 | 37103 ft | 545 kts | 26° |
| 2026-05-04 22:33 | 19.89007 | -131.07968 | 37100 ft | 544 kts | 26° |
| 2026-05-04 22:34 | 19.95288 | -131.03418 | 37098 ft | 544 kts | 26° |
| 2026-05-04 22:34 | 20.01517 | -130.98890 | 37104 ft | 544 kts | 27° |
| 2026-05-04 22:35 | 20.07681 | -130.94210 | 37099 ft | 545 kts | 28° |
| 2026-05-04 22:35 | 20.13793 | -130.89474 | 37111 ft | 546 kts | 28° |
| 2026-05-04 22:36 | 20.19983 | -130.84690 | 37105 ft | 547 kts | 28° |
| 2026-05-04 22:36 | 20.26132 | -130.79962 | 37096 ft | 549 kts | 28° |
| 2026-05-04 22:37 | 20.32318 | -130.75209 | 37111 ft | 549 kts | 28° |
| 2026-05-04 22:37 | 20.38526 | -130.70433 | 37105 ft | 549 kts | 28° |
| 2026-05-04 22:38 | 20.44678 | -130.65693 | 37094 ft | 549 kts | 28° |
| 2026-05-04 22:38 | 20.50889 | -130.60902 | 37092 ft | 549 kts | 28° |
| 2026-05-04 22:39 | 20.57055 | -130.56141 | 37119 ft | 548 kts | 29° |
| 2026-05-04 22:39 | 20.63243 | -130.51358 | 37102 ft | 547 kts | 29° |
| 2026-05-04 22:40 | 20.69399 | -130.46595 | 37103 ft | 545 kts | 29° |
| 2026-05-04 22:40 | 20.75535 | -130.41843 | 37098 ft | 544 kts | 29° |
| 2026-05-04 22:41 | 20.81635 | -130.37114 | 37103 ft | 543 kts | 29° |
| 2026-05-04 22:41 | 20.87729 | -130.32387 | 37136 ft | 542 kts | 30° |
| 2026-05-04 22:42 | 20.93828 | -130.27650 | 37109 ft | 541 kts | 30° |
| 2026-05-04 22:42 | 20.99917 | -130.22914 | 37099 ft | 540 kts | 30° |
| 2026-05-04 22:43 | 21.05955 | -130.18214 | 37101 ft | 539 kts | 30° |
| 2026-05-04 22:43 | 21.12036 | -130.13475 | 37103 ft | 539 kts | 30° |
| 2026-05-04 22:44 | 21.18095 | -130.08751 | 37108 ft | 539 kts | 30° |
| 2026-05-04 22:44 | 21.24160 | -130.04016 | 37105 ft | 539 kts | 30° |
| 2026-05-04 22:45 | 21.30178 | -129.99312 | 37108 ft | 538 kts | 31° |
| 2026-05-04 22:45 | 21.39242 | -129.92217 | 37107 ft | 538 kts | 31° |
| 2026-05-04 22:46 | 21.45270 | -129.87494 | 37108 ft | 537 kts | 31° |
| 2026-05-04 22:46 | 21.51312 | -129.82754 | 37109 ft | 537 kts | 31° |
| 2026-05-04 22:47 | 21.57358 | -129.78007 | 37114 ft | 538 kts | 31° |
| 2026-05-04 22:47 | 21.63405 | -129.73252 | 37109 ft | 537 kts | 31° |
| 2026-05-04 22:48 | 21.69397 | -129.68536 | 37099 ft | 536 kts | 31° |
| 2026-05-04 22:48 | 21.75430 | -129.63783 | 37104 ft | 536 kts | 31° |
| 2026-05-04 22:49 | 21.81426 | -129.59054 | 37108 ft | 535 kts | 31° |
| 2026-05-04 22:49 | 21.87423 | -129.54320 | 37112 ft | 536 kts | 31° |
| 2026-05-04 22:50 | 21.93438 | -129.49568 | 37108 ft | 537 kts | 31° |
| 2026-05-04 22:50 | 21.99467 | -129.44798 | 37113 ft | 538 kts | 31° |
| 2026-05-04 22:51 | 22.05493 | -129.40025 | 37110 ft | 539 kts | 31° |
| 2026-05-04 22:51 | 22.11423 | -129.35323 | 37112 ft | 539 kts | 31° |
| 2026-05-04 22:52 | 22.17482 | -129.30514 | 37112 ft | 540 kts | 31° |
| 2026-05-04 22:52 | 22.23537 | -129.25702 | 37112 ft | 541 kts | 31° |
| 2026-05-04 22:53 | 22.29594 | -129.20884 | 37113 ft | 541 kts | 31° |
| 2026-05-04 22:53 | 22.35616 | -129.16088 | 37110 ft | 541 kts | 31° |
| 2026-05-04 22:54 | 22.41676 | -129.11257 | 37115 ft | 541 kts | 31° |
| 2026-05-04 22:54 | 22.47727 | -129.06428 | 37114 ft | 540 kts | 32° |
| 2026-05-04 22:55 | 22.53781 | -129.01591 | 37121 ft | 542 kts | 31° |
| 2026-05-04 22:55 | 22.59846 | -128.96740 | 37117 ft | 542 kts | 31° |
| 2026-05-04 22:56 | 22.65875 | -128.91912 | 37114 ft | 543 kts | 31° |
| 2026-05-04 22:56 | 22.71990 | -128.87009 | 37116 ft | 543 kts | 31° |
| 2026-05-04 22:57 | 22.78025 | -128.82166 | 37120 ft | 544 kts | 31° |
| 2026-05-04 22:57 | 22.84116 | -128.77271 | 37148 ft | 544 kts | 31° |
| 2026-05-04 22:58 | 22.90197 | -128.72379 | 37117 ft | 543 kts | 31° |
| 2026-05-04 22:58 | 22.96252 | -128.67502 | 37115 ft | 542 kts | 31° |
| 2026-05-04 22:59 | 23.02312 | -128.62615 | 37106 ft | 541 kts | 31° |
| 2026-05-04 22:59 | 23.08351 | -128.57742 | 37119 ft | 541 kts | 31° |
| 2026-05-04 23:00 | 23.14360 | -128.52886 | 37117 ft | 541 kts | 31° |
| 2026-05-04 23:00 | 23.20394 | -128.48004 | 37115 ft | 540 kts | 32° |
| 2026-05-04 23:01 | 23.26412 | -128.43129 | 37122 ft | 538 kts | 32° |
| 2026-05-04 23:01 | 23.32413 | -128.38262 | 37117 ft | 537 kts | 32° |
| 2026-05-04 23:02 | 23.38403 | -128.33399 | 37119 ft | 535 kts | 32° |
| 2026-05-04 23:02 | 23.44327 | -128.28585 | 37119 ft | 534 kts | 32° |
| 2026-05-04 23:03 | 23.50283 | -128.23739 | 37141 ft | 534 kts | 32° |
| 2026-05-04 23:03 | 23.56239 | -128.18887 | 37131 ft | 533 kts | 32° |
| 2026-05-04 23:04 | 23.62179 | -128.14043 | 37128 ft | 533 kts | 32° |
| 2026-05-04 23:04 | 23.68084 | -128.09221 | 37119 ft | 532 kts | 32° |
| 2026-05-04 23:05 | 23.74008 | -128.04379 | 37116 ft | 532 kts | 32° |
| 2026-05-04 23:05 | 23.79926 | -127.99535 | 37123 ft | 532 kts | 32° |
| 2026-05-04 23:06 | 23.85848 | -127.94683 | 37139 ft | 531 kts | 32° |
| 2026-05-04 23:06 | 23.91759 | -127.89834 | 37123 ft | 531 kts | 32° |
| 2026-05-04 23:07 | 23.97665 | -127.84983 | 37119 ft | 531 kts | 32° |
| 2026-05-04 23:07 | 24.02578 | -127.80943 | 37121 ft | 530 kts | 32° |
| 2026-05-04 23:08 | 24.09435 | -127.75299 | 37123 ft | 530 kts | 32° |
| 2026-05-04 23:08 | 24.14374 | -127.71229 | 37120 ft | 530 kts | 32° |
| 2026-05-04 23:09 | 24.20241 | -127.66389 | 37116 ft | 531 kts | 32° |
| 2026-05-04 23:09 | 24.26133 | -127.61522 | 37117 ft | 531 kts | 32° |
| 2026-05-04 23:10 | 24.32030 | -127.56645 | 37133 ft | 531 kts | 32° |
| 2026-05-04 23:10 | 24.37924 | -127.51764 | 37117 ft | 531 kts | 32° |
| 2026-05-04 23:11 | 24.43817 | -127.46879 | 37130 ft | 531 kts | 32° |
| 2026-05-04 23:11 | 24.49740 | -127.41963 | 37145 ft | 531 kts | 32° |
| 2026-05-04 23:12 | 24.55597 | -127.37096 | 37126 ft | 531 kts | 32° |
| 2026-05-04 23:12 | 24.61490 | -127.32193 | 37123 ft | 531 kts | 32° |
| 2026-05-04 23:13 | 24.67370 | -127.27294 | 37123 ft | 530 kts | 32° |
| 2026-05-04 23:13 | 24.73255 | -127.22386 | 37122 ft | 530 kts | 32° |
| 2026-05-04 23:14 | 24.79133 | -127.17478 | 37126 ft | 530 kts | 32° |
| 2026-05-04 23:14 | 24.85009 | -127.12565 | 37126 ft | 531 kts | 32° |
| 2026-05-04 23:15 | 24.90878 | -127.07651 | 37129 ft | 530 kts | 32° |
| 2026-05-04 23:15 | 24.96717 | -127.02756 | 37124 ft | 530 kts | 32° |
| 2026-05-04 23:16 | 25.02606 | -126.97876 | 37127 ft | 528 kts | 30° |
| 2026-05-04 23:16 | 25.08654 | -126.93287 | 37129 ft | 527 kts | 28° |
| 2026-05-04 23:17 | 25.14752 | -126.88772 | 37152 ft | 528 kts | 28° |
| 2026-05-04 23:17 | 25.20831 | -126.84211 | 37132 ft | 529 kts | 29° |
| 2026-05-04 23:18 | 25.26893 | -126.79606 | 37131 ft | 529 kts | 29° |
| 2026-05-04 23:18 | 25.32947 | -126.74987 | 37131 ft | 529 kts | 29° |
| 2026-05-04 23:19 | 25.39015 | -126.70355 | 37129 ft | 530 kts | 29° |
| 2026-05-04 23:19 | 25.45082 | -126.65721 | 37133 ft | 530 kts | 29° |
| 2026-05-04 23:20 | 25.51114 | -126.61110 | 37131 ft | 531 kts | 29° |
| 2026-05-04 23:20 | 25.57190 | -126.56460 | 37131 ft | 531 kts | 29° |
| 2026-05-04 23:21 | 25.63274 | -126.51796 | 37132 ft | 531 kts | 29° |
| 2026-05-04 23:21 | 25.69354 | -126.47131 | 37128 ft | 532 kts | 29° |
| 2026-05-04 23:22 | 25.75442 | -126.42453 | 37129 ft | 532 kts | 30° |
| 2026-05-04 23:22 | 25.81536 | -126.37765 | 37129 ft | 533 kts | 29° |
| 2026-05-04 23:23 | 25.87627 | -126.33073 | 37134 ft | 533 kts | 29° |
| 2026-05-04 23:23 | 25.93682 | -126.28402 | 37139 ft | 532 kts | 29° |
| 2026-05-04 23:24 | 25.99759 | -126.23709 | 37118 ft | 532 kts | 29° |
| 2026-05-04 23:24 | 26.05841 | -126.19006 | 37137 ft | 532 kts | 30° |
| 2026-05-04 23:25 | 26.11892 | -126.14321 | 37145 ft | 533 kts | 29° |
| 2026-05-04 23:25 | 26.17981 | -126.09601 | 37132 ft | 533 kts | 29° |
| 2026-05-04 23:26 | 26.24078 | -126.04868 | 37132 ft | 534 kts | 29° |
| 2026-05-04 23:26 | 26.30167 | -126.00135 | 37130 ft | 534 kts | 29° |
| 2026-05-04 23:27 | 26.36266 | -125.95387 | 37131 ft | 533 kts | 30° |
| 2026-05-04 23:27 | 26.42309 | -125.90678 | 37174 ft | 533 kts | 29° |
| 2026-05-04 23:28 | 26.48404 | -125.85922 | 37134 ft | 534 kts | 29° |
| 2026-05-04 23:28 | 26.54493 | -125.81164 | 37129 ft | 534 kts | 29° |
| 2026-05-04 23:29 | 26.57157 | -125.79081 | 37129 ft | 533 kts | 29° |
| 2026-05-04 23:29 | 26.63221 | -125.74333 | 37130 ft | 533 kts | 29° |
| 2026-05-04 23:30 | 26.69306 | -125.69563 | 37129 ft | 534 kts | 29° |
| 2026-05-04 23:30 | 26.75388 | -125.64789 | 37155 ft | 534 kts | 29° |
| 2026-05-04 23:31 | 26.81479 | -125.60003 | 37137 ft | 535 kts | 29° |
| 2026-05-04 23:31 | 26.87571 | -125.55208 | 37130 ft | 535 kts | 29° |
| 2026-05-04 23:32 | 26.93626 | -125.50435 | 37131 ft | 535 kts | 29° |
| 2026-05-04 23:32 | 26.99725 | -125.45623 | 37122 ft | 536 kts | 29° |
| 2026-05-04 23:33 | 27.05823 | -125.40804 | 37173 ft | 536 kts | 29° |
| 2026-05-04 23:33 | 27.11929 | -125.35972 | 37138 ft | 537 kts | 29° |
| 2026-05-04 23:34 | 27.18031 | -125.31137 | 37132 ft | 537 kts | 29° |
| 2026-05-04 23:34 | 27.24138 | -125.26292 | 37127 ft | 537 kts | 29° |
| 2026-05-04 23:35 | 27.30230 | -125.21451 | 37126 ft | 538 kts | 29° |
| 2026-05-04 23:35 | 27.36309 | -125.16614 | 37125 ft | 538 kts | 29° |
| 2026-05-04 23:36 | 27.42421 | -125.11745 | 37127 ft | 539 kts | 29° |
| 2026-05-04 23:36 | 27.48553 | -125.06853 | 37127 ft | 539 kts | 29° |
| 2026-05-04 23:37 | 27.54665 | -125.01969 | 37128 ft | 539 kts | 29° |
| 2026-05-04 23:37 | 27.60793 | -124.97066 | 37128 ft | 539 kts | 29° |
| 2026-05-04 23:38 | 27.66922 | -124.92156 | 37126 ft | 540 kts | 29° |
| 2026-05-04 23:38 | 27.73015 | -124.87267 | 37133 ft | 541 kts | 29° |
| 2026-05-04 23:39 | 27.79163 | -124.82329 | 37132 ft | 542 kts | 29° |
| 2026-05-04 23:39 | 27.85314 | -124.77380 | 37126 ft | 542 kts | 29° |
| 2026-05-04 23:40 | 27.91458 | -124.72429 | 37132 ft | 543 kts | 29° |
| 2026-05-04 23:40 | 27.97566 | -124.67500 | 37122 ft | 543 kts | 29° |
| 2026-05-04 23:41 | 28.03726 | -124.62523 | 37136 ft | 544 kts | 29° |
| 2026-05-04 23:41 | 28.09899 | -124.57528 | 37125 ft | 545 kts | 29° |
| 2026-05-04 23:42 | 28.16072 | -124.52526 | 37120 ft | 545 kts | 29° |
| 2026-05-04 23:42 | 28.22242 | -124.47519 | 37131 ft | 546 kts | 29° |
| 2026-05-04 23:43 | 28.28418 | -124.42499 | 37123 ft | 546 kts | 29° |
| 2026-05-04 23:43 | 28.34574 | -124.37490 | 37159 ft | 547 kts | 29° |
| 2026-05-04 23:44 | 28.40779 | -124.32433 | 37122 ft | 549 kts | 29° |
| 2026-05-04 23:44 | 28.46984 | -124.27367 | 37121 ft | 549 kts | 29° |
| 2026-05-04 23:45 | 28.53185 | -124.22297 | 37125 ft | 550 kts | 29° |
| 2026-05-04 23:45 | 28.59366 | -124.17237 | 37116 ft | 550 kts | 30° |
| 2026-05-04 23:46 | 28.65562 | -124.12157 | 37122 ft | 550 kts | 30° |
| 2026-05-04 23:46 | 28.71805 | -124.07030 | 37107 ft | 550 kts | 30° |
| 2026-05-04 23:47 | 28.77992 | -124.01942 | 37122 ft | 550 kts | 30° |
| 2026-05-04 23:47 | 28.84212 | -123.96819 | 37113 ft | 550 kts | 30° |
| 2026-05-04 23:48 | 28.90418 | -123.91701 | 37100 ft | 551 kts | 30° |
| 2026-05-04 23:48 | 28.96602 | -123.86592 | 37180 ft | 551 kts | 30° |
| 2026-05-04 23:49 | 29.02835 | -123.81436 | 37112 ft | 553 kts | 30° |
| 2026-05-04 23:49 | 29.09063 | -123.76275 | 37112 ft | 554 kts | 30° |
| 2026-05-04 23:50 | 29.15300 | -123.71099 | 37110 ft | 554 kts | 30° |
| 2026-05-04 23:50 | 29.21539 | -123.65913 | 37100 ft | 555 kts | 30° |
| 2026-05-04 23:51 | 29.27777 | -123.60720 | 37110 ft | 555 kts | 30° |
| 2026-05-04 23:51 | 29.34019 | -123.55517 | 37111 ft | 557 kts | 30° |
| 2026-05-04 23:52 | 29.40291 | -123.50279 | 37108 ft | 557 kts | 30° |
| 2026-05-04 23:52 | 29.46548 | -123.45046 | 37102 ft | 557 kts | 30° |
| 2026-05-04 23:53 | 29.52787 | -123.39819 | 37106 ft | 557 kts | 30° |
| 2026-05-04 23:53 | 29.59070 | -123.34548 | 37100 ft | 557 kts | 30° |
| 2026-05-04 23:54 | 29.65294 | -123.29319 | 37110 ft | 558 kts | 30° |
| 2026-05-04 23:54 | 29.71587 | -123.24023 | 37106 ft | 558 kts | 30° |
| 2026-05-04 23:55 | 29.77834 | -123.18756 | 37108 ft | 558 kts | 30° |
| 2026-05-04 23:56 | 29.87206 | -123.10840 | 37109 ft | 558 kts | 31° |
| 2026-05-04 23:56 | 29.92423 | -123.06425 | 37148 ft | 558 kts | 31° |
| 2026-05-04 23:57 | 29.98713 | -123.01094 | 37109 ft | 560 kts | 31° |
| 2026-05-04 23:57 | 30.04744 | -122.95378 | 37101 ft | 564 kts | 36° |
| 2026-05-04 23:58 | 30.10610 | -122.89376 | 37101 ft | 565 kts | 37° |
| 2026-05-04 23:58 | 30.16514 | -122.83313 | 37099 ft | 566 kts | 37° |
| 2026-05-04 23:59 | 30.22412 | -122.77302 | 37101 ft | 566 kts | 37° |
| 2026-05-04 23:59 | 30.28313 | -122.71309 | 37121 ft | 568 kts | 37° |
| 2026-05-05 00:00 | 30.34267 | -122.65256 | 37105 ft | 568 kts | 37° |
| 2026-05-05 00:00 | 30.40178 | -122.59232 | 37092 ft | 569 kts | 37° |
| 2026-05-05 00:01 | 30.46115 | -122.53164 | 37089 ft | 569 kts | 37° |
| 2026-05-05 00:01 | 30.52061 | -122.47078 | 37079 ft | 570 kts | 37° |
| 2026-05-05 00:02 | 30.58007 | -122.40982 | 37099 ft | 570 kts | 37° |
| 2026-05-05 00:02 | 30.63951 | -122.34878 | 37091 ft | 571 kts | 38° |
| 2026-05-05 00:03 | 30.69879 | -122.28783 | 37084 ft | 571 kts | 38° |
| 2026-05-05 00:03 | 30.75827 | -122.22654 | 37088 ft | 571 kts | 38° |
| 2026-05-05 00:04 | 30.81754 | -122.16535 | 37088 ft | 571 kts | 38° |
| 2026-05-05 00:04 | 30.87691 | -122.10397 | 37088 ft | 571 kts | 38° |
| 2026-05-05 00:05 | 30.93625 | -122.04251 | 37118 ft | 571 kts | 39° |
| 2026-05-05 00:05 | 30.99563 | -121.98091 | 37089 ft | 571 kts | 39° |
| 2026-05-05 00:06 | 31.05499 | -121.91922 | 37083 ft | 571 kts | 39° |
| 2026-05-05 00:06 | 31.11380 | -121.85798 | 37084 ft | 570 kts | 39° |
| 2026-05-05 00:07 | 31.17301 | -121.79623 | 37069 ft | 570 kts | 39° |
| 2026-05-05 00:07 | 31.23206 | -121.73455 | 37075 ft | 569 kts | 39° |
| 2026-05-05 00:08 | 31.29065 | -121.67322 | 37088 ft | 570 kts | 39° |
| 2026-05-05 00:08 | 31.34949 | -121.61153 | 37079 ft | 569 kts | 39° |
| 2026-05-05 00:09 | 31.40847 | -121.54958 | 37073 ft | 569 kts | 39° |
| 2026-05-05 00:09 | 31.46708 | -121.48791 | 37072 ft | 569 kts | 40° |
| 2026-05-05 00:10 | 31.52568 | -121.42614 | 37076 ft | 569 kts | 40° |
| 2026-05-05 00:10 | 31.55361 | -121.39323 | 37058 ft | 569 kts | 51° |
| 2026-05-05 00:10 | 31.57462 | -121.35396 | 37068 ft | 565 kts | 70° |
| 2026-05-05 00:11 | 31.60259 | -121.26843 | 37078 ft | 564 kts | 72° |
| 2026-05-05 00:11 | 31.63075 | -121.18221 | 37077 ft | 567 kts | 72° |
| 2026-05-05 00:12 | 31.66004 | -121.09633 | 37075 ft | 570 kts | 71° |
| 2026-05-05 00:12 | 31.68995 | -121.00995 | 37073 ft | 570 kts | 71° |
| 2026-05-05 00:13 | 31.71967 | -120.92379 | 37060 ft | 569 kts | 71° |
| 2026-05-05 00:13 | 31.74923 | -120.83752 | 37065 ft | 567 kts | 71° |
| 2026-05-05 00:14 | 31.77834 | -120.75224 | 37064 ft | 565 kts | 71° |
| 2026-05-05 00:14 | 31.80744 | -120.66675 | 37065 ft | 563 kts | 71° |
| 2026-05-05 00:15 | 31.83644 | -120.58138 | 37065 ft | 562 kts | 72° |
| 2026-05-05 00:15 | 31.86546 | -120.49573 | 37066 ft | 562 kts | 72° |
| 2026-05-05 00:16 | 31.89421 | -120.41064 | 37064 ft | 563 kts | 72° |
| 2026-05-05 00:16 | 31.92321 | -120.32462 | 37059 ft | 563 kts | 72° |
| 2026-05-05 00:17 | 31.95826 | -120.24271 | 37047 ft | 567 kts | 50° |
| 2026-05-05 00:17 | 32.01264 | -120.17541 | 37062 ft | 566 kts | 44° |
| 2026-05-05 00:18 | 32.06802 | -120.10922 | 37051 ft | 568 kts | 45° |
| 2026-05-05 00:18 | 32.12122 | -120.04307 | 37061 ft | 569 kts | 46° |
| 2026-05-05 00:19 | 32.17523 | -119.97437 | 37068 ft | 570 kts | 46° |
| 2026-05-05 00:19 | 32.22897 | -119.90586 | 36986 ft | 572 kts | 46° |
| 2026-05-05 00:19 | 32.25640 | -119.87096 | 36227 ft | 581 kts | 46° |
| 2026-05-05 00:20 | 32.28389 | -119.83600 | 35562 ft | 580 kts | 47° |
| 2026-05-05 00:20 | 32.31145 | -119.80092 | 34737 ft | 582 kts | 47° |
| 2026-05-05 00:20 | 32.33906 | -119.76575 | 33886 ft | 585 kts | 47° |
| 2026-05-05 00:20 | 32.36680 | -119.73036 | 32948 ft | 587 kts | 47° |
| 2026-05-05 00:21 | 32.39403 | -119.69558 | 32467 ft | 580 kts | 47° |
| 2026-05-05 00:21 | 32.42135 | -119.66066 | 31967 ft | 574 kts | 47° |
| 2026-05-05 00:21 | 32.44837 | -119.62608 | 31480 ft | 568 kts | 47° |
| 2026-05-05 00:21 | 32.47525 | -119.59167 | 31000 ft | 563 kts | 48° |
| 2026-05-05 00:22 | 32.50144 | -119.55810 | 30527 ft | 558 kts | 48° |
| 2026-05-05 00:22 | 32.52772 | -119.52441 | 30006 ft | 553 kts | 48° |
| 2026-05-05 00:22 | 32.55377 | -119.49096 | 29489 ft | 548 kts | 48° |
| 2026-05-05 00:22 | 32.57952 | -119.45786 | 28942 ft | 543 kts | 47° |
| 2026-05-05 00:23 | 32.60506 | -119.42500 | 28456 ft | 538 kts | 47° |
| 2026-05-05 00:23 | 32.62999 | -119.39289 | 27972 ft | 533 kts | 47° |
| 2026-05-05 00:23 | 32.65496 | -119.36070 | 27465 ft | 528 kts | 47° |
| 2026-05-05 00:23 | 32.67968 | -119.32880 | 26988 ft | 523 kts | 47° |
| 2026-05-05 00:24 | 32.70426 | -119.29706 | 26494 ft | 518 kts | 47° |
| 2026-05-05 00:24 | 32.72854 | -119.26568 | 26010 ft | 513 kts | 47° |
| 2026-05-05 00:24 | 32.75252 | -119.23466 | 25521 ft | 509 kts | 46° |
| 2026-05-05 00:24 | 32.77651 | -119.20359 | 25028 ft | 505 kts | 46° |
| 2026-05-05 00:25 | 32.80019 | -119.17292 | 24553 ft | 501 kts | 46° |
| 2026-05-05 00:25 | 32.82350 | -119.14268 | 24055 ft | 497 kts | 46° |
| 2026-05-05 00:25 | 32.84682 | -119.11242 | 23561 ft | 494 kts | 46° |
| 2026-05-05 00:25 | 32.87000 | -119.08231 | 22982 ft | 490 kts | 46° |
| 2026-05-05 00:26 | 32.89291 | -119.05253 | 22459 ft | 485 kts | 46° |
| 2026-05-05 00:26 | 32.91540 | -119.02328 | 21976 ft | 480 kts | 46° |
| 2026-05-05 00:26 | 32.93795 | -118.99392 | 21470 ft | 475 kts | 46° |
| 2026-05-05 00:26 | 32.96014 | -118.96500 | 20979 ft | 469 kts | 46° |
| 2026-05-05 00:27 | 32.98178 | -118.93677 | 20479 ft | 465 kts | 46° |
| 2026-05-05 00:27 | 33.00368 | -118.90819 | 19999 ft | 460 kts | 46° |
| 2026-05-05 00:27 | 33.02515 | -118.88014 | 19519 ft | 456 kts | 46° |
| 2026-05-05 00:27 | 33.04580 | -118.85315 | 19048 ft | 449 kts | 47° |
| 2026-05-05 00:28 | 33.06643 | -118.82615 | 18526 ft | 430 kts | 47° |
| 2026-05-05 00:28 | 33.08629 | -118.80014 | 17977 ft | 413 kts | 47° |
| 2026-05-05 00:28 | 33.10505 | -118.77555 | 17488 ft | 398 kts | 47° |
| 2026-05-05 00:28 | 33.12368 | -118.75113 | 17041 ft | 395 kts | 47° |
| 2026-05-05 00:29 | 33.14232 | -118.72668 | 16600 ft | 395 kts | 47° |
| 2026-05-05 00:29 | 33.16072 | -118.70254 | 16190 ft | 394 kts | 47° |
| 2026-05-05 00:29 | 33.17877 | -118.67883 | 16028 ft | 384 kts | 47° |
| 2026-05-05 00:29 | 33.19644 | -118.65519 | 15899 ft | 375 kts | 48° |
| 2026-05-05 00:30 | 33.21343 | -118.63142 | 15827 ft | 379 kts | 49° |
| 2026-05-05 00:30 | 33.23049 | -118.60724 | 15748 ft | 385 kts | 49° |
| 2026-05-05 00:30 | 33.24770 | -118.58285 | 15649 ft | 388 kts | 49° |
| 2026-05-05 00:30 | 33.26515 | -118.55820 | 15550 ft | 386 kts | 49° |
| 2026-05-05 00:31 | 33.28234 | -118.53398 | 15461 ft | 384 kts | 49° |
| 2026-05-05 00:31 | 33.29962 | -118.50966 | 15352 ft | 383 kts | 49° |
| 2026-05-05 00:31 | 33.31696 | -118.48527 | 15238 ft | 381 kts | 49° |
| 2026-05-05 00:31 | 33.33271 | -118.46030 | 15133 ft | 373 kts | 63° |
| 2026-05-05 00:32 | 33.34070 | -118.43143 | 15042 ft | 372 kts | 84° |
| 2026-05-05 00:32 | 33.34090 | -118.40029 | 14979 ft | 370 kts | 96° |
| 2026-05-05 00:32 | 33.33893 | -118.36969 | 14892 ft | 375 kts | 97° |
| 2026-05-05 00:32 | 33.33687 | -118.33846 | 14782 ft | 374 kts | 97° |
| 2026-05-05 00:33 | 33.33496 | -118.30777 | 14680 ft | 372 kts | 97° |
| 2026-05-05 00:33 | 33.33310 | -118.27683 | 14570 ft | 371 kts | 97° |
| 2026-05-05 00:33 | 33.33131 | -118.24608 | 14457 ft | 369 kts | 97° |
| 2026-05-05 00:33 | 33.32955 | -118.21537 | 14365 ft | 368 kts | 97° |
| 2026-05-05 00:34 | 33.32784 | -118.18517 | 14267 ft | 367 kts | 96° |
| 2026-05-05 00:34 | 33.32610 | -118.15457 | 14176 ft | 366 kts | 96° |
| 2026-05-05 00:34 | 33.32481 | -118.12448 | 14065 ft | 362 kts | 90° |
| 2026-05-05 00:34 | 33.33038 | -118.09493 | 13884 ft | 372 kts | 66° |
| 2026-05-05 00:35 | 33.34489 | -118.06914 | 13398 ft | 374 kts | 45° |
| 2026-05-05 00:35 | 33.36336 | -118.04721 | 12951 ft | 371 kts | 43° |
| 2026-05-05 00:35 | 33.38149 | -118.02539 | 12486 ft | 368 kts | 44° |
| 2026-05-05 00:35 | 33.40120 | -118.00684 | 12041 ft | 356 kts | 24° |
| 2026-05-05 00:36 | 33.42448 | -117.99821 | 11682 ft | 347 kts | 4° |
| 2026-05-05 00:36 | 33.44837 | -117.99759 | 11324 ft | 341 kts | 354° |
| 2026-05-05 00:36 | 33.47198 | -117.99900 | 10945 ft | 338 kts | 353° |
| 2026-05-05 00:36 | 33.49510 | -118.00052 | 10569 ft | 336 kts | 353° |
| 2026-05-05 00:37 | 33.51835 | -118.00192 | 10220 ft | 333 kts | 354° |
| 2026-05-05 00:37 | 33.54168 | -118.00315 | 9854 ft | 331 kts | 355° |
| 2026-05-05 00:37 | 33.56439 | -118.00423 | 9500 ft | 327 kts | 354° |
| 2026-05-05 00:37 | 33.58670 | -118.00530 | 9355 ft | 315 kts | 354° |
| 2026-05-05 00:38 | 33.60787 | -118.00624 | 9149 ft | 293 kts | 354° |
| 2026-05-05 00:38 | 33.62780 | -118.00710 | 8801 ft | 279 kts | 354° |
| 2026-05-05 00:38 | 33.64678 | -118.00805 | 8375 ft | 273 kts | 351° |
| 2026-05-05 00:38 | 33.66536 | -118.01238 | 8008 ft | 269 kts | 340° |
| 2026-05-05 00:39 | 33.68283 | -118.01882 | 7767 ft | 264 kts | 339° |
| 2026-05-05 00:39 | 33.70021 | -118.02541 | 7603 ft | 256 kts | 339° |
| 2026-05-05 00:39 | 33.71682 | -118.03149 | 7492 ft | 247 kts | 339° |
| 2026-05-05 00:39 | 33.73297 | -118.03722 | 7350 ft | 235 kts | 339° |
| 2026-05-05 00:40 | 33.74838 | -118.04258 | 7233 ft | 232 kts | 339° |
| 2026-05-05 00:40 | 33.76409 | -118.04806 | 7100 ft | 235 kts | 339° |
| 2026-05-05 00:40 | 33.77966 | -118.05346 | 6984 ft | 232 kts | 340° |
| 2026-05-05 00:40 | 33.79498 | -118.05981 | 6717 ft | 231 kts | 334° |
| 2026-05-05 00:41 | 33.80968 | -118.06697 | 6464 ft | 229 kts | 334° |
| 2026-05-05 00:41 | 33.82447 | -118.07426 | 6162 ft | 228 kts | 334° |
| 2026-05-05 00:41 | 33.83922 | -118.08144 | 5901 ft | 226 kts | 335° |
| 2026-05-05 00:41 | 33.84891 | -118.08613 | 5728 ft | 226 kts | 335° |
| 2026-05-05 00:42 | 33.86821 | -118.09539 | 5390 ft | 228 kts | 333° |
| 2026-05-05 00:42 | 33.87804 | -118.10013 | 5199 ft | 230 kts | 334° |
| 2026-05-05 00:42 | 33.89810 | -118.10836 | 4883 ft | 228 kts | 349° |
| 2026-05-05 00:42 | 33.90846 | -118.10947 | 4775 ft | 222 kts | 352° |
| 2026-05-05 00:43 | 33.92377 | -118.11018 | 4517 ft | 216 kts | 350° |
| 2026-05-05 00:43 | 33.93734 | -118.11616 | 4237 ft | 202 kts | 319° |
| 2026-05-05 00:43 | 33.94789 | -118.12664 | 4086 ft | 200 kts | 317° |
| 2026-05-05 00:43 | 33.95677 | -118.13887 | 3854 ft | 190 kts | 288° |
| 2026-05-05 00:44 | 33.95818 | -118.15408 | 3700 ft | 178 kts | 267° |
| 2026-05-05 00:44 | 33.95814 | -118.16921 | 3579 ft | 186 kts | 267° |
| 2026-05-05 00:44 | 33.95743 | -118.18486 | 3364 ft | 191 kts | 263° |
| 2026-05-05 00:44 | 33.95600 | -118.20102 | 3119 ft | 197 kts | 264° |
| 2026-05-05 00:45 | 33.95436 | -118.21761 | 2837 ft | 204 kts | 261° |
| 2026-05-05 00:45 | 33.95256 | -118.23491 | 2545 ft | 210 kts | 262° |
| 2026-05-05 00:45 | 33.95081 | -118.25234 | 2261 ft | 212 kts | 262° |
| 2026-05-05 00:45 | 33.94901 | -118.26974 | 1965 ft | 203 kts | 262° |
| 2026-05-05 00:46 | 33.94736 | -118.28582 | 1715 ft | 182 kts | 260° |
| 2026-05-05 00:46 | 33.94589 | -118.30010 | 1492 ft | 162 kts | 262° |
| 2026-05-05 00:46 | 33.94439 | -118.31457 | 1292 ft | 180 kts | 261° |
| 2026-05-05 00:46 | 33.94284 | -118.32911 | 1073 ft | 170 kts | 260° |
| 2026-05-05 00:47 | 33.94132 | -118.34275 | 1025 ft | 158 kts | 261° |
| 2026-05-05 00:47 | 33.94003 | -118.35543 | 592 ft | 144 kts | 263° |
| 2026-05-05 00:47 | 33.93895 | -118.36643 | 398 ft | 128 kts | 264° |
| 2026-05-05 00:47 | 33.93799 | -118.37716 | 237 ft | 129 kts | 258° |
| 2026-05-05 00:48 | 33.93689 | -118.38779 | 107 ft | 123 kts | 258° |
| 2026-05-05 00:48 | 33.93592 | -118.39682 | 99 ft | 90 kts | 263° |
| 2026-05-05 00:48 | 33.93534 | -118.40249 | 102 ft | 46 kts | 265° |
| 2026-05-05 00:48 | 33.93549 | -118.40482 | 102 ft | 21 kts | 282° |
| 2026-05-05 00:49 | 33.93591 | -118.40649 | 99 ft | 21 kts | 280° |